<?xml version="1.0" encoding="UTF-8" standalone="no" ?>
<gpx xmlns="http://www.topografix.com/GPX/1/1" xmlns:xsi="http://www.w3.org/2001/XMLSchema-instance" xsi:schemaLocation="http://www.topografix.com/GPX/1/1 http://www.topografix.com/GPX/1/1/gpx.xsd" version="1.1" creator="VisuGPX - https://www.visugpx.com">
  <metadata>
    <name>vtt 2013 08 04 plougastel</name>
    <desc><![CDATA[vtt plougastel 2013 08 04]]></desc>
  </metadata>
  <trk>
    <name><![CDATA[2013-08-04T08:06:02Z]]></name>
    <trkseg>
      <trkpt lat="48.39206" lon="-4.37945">
        <ele>13.5958252</ele>
        <time>2013-08-04T08:06:06Z</time>
      </trkpt>
      <trkpt lat="48.39211" lon="-4.37967">
        <ele>19.8443604</ele>
        <time>2013-08-04T08:06:10Z</time>
      </trkpt>
      <trkpt lat="48.39211" lon="-4.37974">
        <ele>22.2475586</ele>
        <time>2013-08-04T08:06:11Z</time>
      </trkpt>
      <trkpt lat="48.39205" lon="-4.38015">
        <ele>28.4962158</ele>
        <time>2013-08-04T08:06:19Z</time>
      </trkpt>
      <trkpt lat="48.39196" lon="-4.3805">
        <ele>31.8607178</ele>
        <time>2013-08-04T08:06:25Z</time>
      </trkpt>
      <trkpt lat="48.3918" lon="-4.38088">
        <ele>31.380127</ele>
        <time>2013-08-04T08:06:32Z</time>
      </trkpt>
      <trkpt lat="48.39166" lon="-4.38128">
        <ele>34.2641602</ele>
        <time>2013-08-04T08:06:38Z</time>
      </trkpt>
      <trkpt lat="48.39161" lon="-4.38143">
        <ele>34.744873</ele>
        <time>2013-08-04T08:06:41Z</time>
      </trkpt>
      <trkpt lat="48.39155" lon="-4.38167">
        <ele>35.2254639</ele>
        <time>2013-08-04T08:06:47Z</time>
      </trkpt>
      <trkpt lat="48.39144" lon="-4.3817">
        <ele>33.3028564</ele>
        <time>2013-08-04T08:06:51Z</time>
      </trkpt>
      <trkpt lat="48.39136" lon="-4.38164">
        <ele>33.7834473</ele>
        <time>2013-08-04T08:06:54Z</time>
      </trkpt>
      <trkpt lat="48.39125" lon="-4.38157">
        <ele>33.3028564</ele>
        <time>2013-08-04T08:06:59Z</time>
      </trkpt>
      <trkpt lat="48.3912" lon="-4.38157">
        <ele>32.3415527</ele>
        <time>2013-08-04T08:07:02Z</time>
      </trkpt>
      <trkpt lat="48.39118" lon="-4.38154">
        <ele>33.3028564</ele>
        <time>2013-08-04T08:07:06Z</time>
      </trkpt>
      <trkpt lat="48.39124" lon="-4.38156">
        <ele>31.380127</ele>
        <time>2013-08-04T08:07:11Z</time>
      </trkpt>
      <trkpt lat="48.39125" lon="-4.38157">
        <ele>29.9381104</ele>
        <time>2013-08-04T08:07:13Z</time>
      </trkpt>
      <trkpt lat="48.39129" lon="-4.38162">
        <ele>31.380127</ele>
        <time>2013-08-04T08:07:17Z</time>
      </trkpt>
      <trkpt lat="48.39137" lon="-4.38163">
        <ele>23.2089844</ele>
        <time>2013-08-04T08:07:24Z</time>
      </trkpt>
      <trkpt lat="48.3914" lon="-4.38158">
        <ele>19.3637695</ele>
        <time>2013-08-04T08:07:27Z</time>
      </trkpt>
      <trkpt lat="48.39152" lon="-4.3812">
        <ele>12.1538086</ele>
        <time>2013-08-04T08:07:35Z</time>
      </trkpt>
      <trkpt lat="48.39164" lon="-4.38084">
        <ele>8.3085938</ele>
        <time>2013-08-04T08:07:42Z</time>
      </trkpt>
      <trkpt lat="48.39178" lon="-4.38045">
        <ele>5.9052734</ele>
        <time>2013-08-04T08:07:50Z</time>
      </trkpt>
      <trkpt lat="48.39188" lon="-4.3801">
        <ele>4.9438477</ele>
        <time>2013-08-04T08:07:57Z</time>
      </trkpt>
      <trkpt lat="48.3919" lon="-4.38">
        <ele>4.4632568</ele>
        <time>2013-08-04T08:08:02Z</time>
      </trkpt>
      <trkpt lat="48.3919" lon="-4.38">
        <ele>4.4632568</ele>
        <time>2013-08-04T08:08:04Z</time>
      </trkpt>
      <trkpt lat="48.3919" lon="-4.37995">
        <ele>3.5019531</ele>
        <time>2013-08-04T08:08:15Z</time>
      </trkpt>
      <trkpt lat="48.39193" lon="-4.37975">
        <ele>2.0600586</ele>
        <time>2013-08-04T08:08:19Z</time>
      </trkpt>
      <trkpt lat="48.39194" lon="-4.37946">
        <ele>1.0986328</ele>
        <time>2013-08-04T08:08:25Z</time>
      </trkpt>
      <trkpt lat="48.39197" lon="-4.37922">
        <ele>-0.8240967</ele>
        <time>2013-08-04T08:08:30Z</time>
      </trkpt>
      <trkpt lat="48.39205" lon="-4.37888">
        <ele>-2.7467041</ele>
        <time>2013-08-04T08:08:36Z</time>
      </trkpt>
      <trkpt lat="48.39207" lon="-4.37872">
        <ele>-2.2659912</ele>
        <time>2013-08-04T08:08:40Z</time>
      </trkpt>
      <trkpt lat="48.39207" lon="-4.37867">
        <ele>-1.7852783</ele>
        <time>2013-08-04T08:08:45Z</time>
      </trkpt>
      <trkpt lat="48.39207" lon="-4.37867">
        <ele>-1.7852783</ele>
        <time>2013-08-04T08:08:46Z</time>
      </trkpt>
      <trkpt lat="48.39203" lon="-4.37853">
        <ele>8.3085938</ele>
        <time>2013-08-04T08:09:18Z</time>
      </trkpt>
      <trkpt lat="48.39196" lon="-4.37843">
        <ele>11.6732178</ele>
        <time>2013-08-04T08:09:23Z</time>
      </trkpt>
      <trkpt lat="48.39191" lon="-4.37837">
        <ele>13.1151123</ele>
        <time>2013-08-04T08:09:27Z</time>
      </trkpt>
      <trkpt lat="48.39188" lon="-4.37834">
        <ele>13.5958252</ele>
        <time>2013-08-04T08:09:30Z</time>
      </trkpt>
      <trkpt lat="48.39188" lon="-4.37831">
        <ele>14.076416</ele>
        <time>2013-08-04T08:09:32Z</time>
      </trkpt>
      <trkpt lat="48.39179" lon="-4.37821">
        <ele>14.076416</ele>
        <time>2013-08-04T08:09:39Z</time>
      </trkpt>
      <trkpt lat="48.39171" lon="-4.3781">
        <ele>18.8830566</ele>
        <time>2013-08-04T08:09:46Z</time>
      </trkpt>
      <trkpt lat="48.3917" lon="-4.37809">
        <ele>19.3637695</ele>
        <time>2013-08-04T08:09:47Z</time>
      </trkpt>
      <trkpt lat="48.39165" lon="-4.37805">
        <ele>19.8443604</ele>
        <time>2013-08-04T08:09:51Z</time>
      </trkpt>
      <trkpt lat="48.39162" lon="-4.37801">
        <ele>21.286377</ele>
        <time>2013-08-04T08:09:54Z</time>
      </trkpt>
      <trkpt lat="48.39153" lon="-4.37788">
        <ele>17.9217529</ele>
        <time>2013-08-04T08:10:01Z</time>
      </trkpt>
      <trkpt lat="48.39148" lon="-4.37782">
        <ele>17.4411621</ele>
        <time>2013-08-04T08:10:05Z</time>
      </trkpt>
      <trkpt lat="48.3914" lon="-4.37771">
        <ele>19.8443604</ele>
        <time>2013-08-04T08:10:11Z</time>
      </trkpt>
      <trkpt lat="48.39138" lon="-4.37768">
        <ele>19.3637695</ele>
        <time>2013-08-04T08:10:12Z</time>
      </trkpt>
      <trkpt lat="48.39132" lon="-4.37756">
        <ele>20.8056641</ele>
        <time>2013-08-04T08:10:17Z</time>
      </trkpt>
      <trkpt lat="48.39124" lon="-4.37747">
        <ele>22.2475586</ele>
        <time>2013-08-04T08:10:22Z</time>
      </trkpt>
      <trkpt lat="48.3911" lon="-4.37731">
        <ele>24.1702881</ele>
        <time>2013-08-04T08:10:31Z</time>
      </trkpt>
      <trkpt lat="48.39098" lon="-4.37718">
        <ele>25.1317139</ele>
        <time>2013-08-04T08:10:40Z</time>
      </trkpt>
      <trkpt lat="48.3909" lon="-4.37701">
        <ele>26.0928955</ele>
        <time>2013-08-04T08:10:45Z</time>
      </trkpt>
      <trkpt lat="48.39078" lon="-4.37678">
        <ele>28.0155029</ele>
        <time>2013-08-04T08:10:53Z</time>
      </trkpt>
      <trkpt lat="48.39067" lon="-4.37656">
        <ele>29.9381104</ele>
        <time>2013-08-04T08:11:02Z</time>
      </trkpt>
      <trkpt lat="48.39062" lon="-4.37641">
        <ele>31.380127</ele>
        <time>2013-08-04T08:11:08Z</time>
      </trkpt>
      <trkpt lat="48.39059" lon="-4.37632">
        <ele>31.8607178</ele>
        <time>2013-08-04T08:11:13Z</time>
      </trkpt>
      <trkpt lat="48.39056" lon="-4.37617">
        <ele>30.4188232</ele>
        <time>2013-08-04T08:11:19Z</time>
      </trkpt>
      <trkpt lat="48.39056" lon="-4.37605">
        <ele>28.0155029</ele>
        <time>2013-08-04T08:11:25Z</time>
      </trkpt>
      <trkpt lat="48.39055" lon="-4.37602">
        <ele>28.0155029</ele>
        <time>2013-08-04T08:11:26Z</time>
      </trkpt>
      <trkpt lat="48.39053" lon="-4.37586">
        <ele>23.2089844</ele>
        <time>2013-08-04T08:11:34Z</time>
      </trkpt>
      <trkpt lat="48.39053" lon="-4.37573">
        <ele>21.7669678</ele>
        <time>2013-08-04T08:11:39Z</time>
      </trkpt>
      <trkpt lat="48.39055" lon="-4.37546">
        <ele>20.8056641</ele>
        <time>2013-08-04T08:11:48Z</time>
      </trkpt>
      <trkpt lat="48.39056" lon="-4.37535">
        <ele>22.7282715</ele>
        <time>2013-08-04T08:11:52Z</time>
      </trkpt>
      <trkpt lat="48.39062" lon="-4.37517">
        <ele>23.2089844</ele>
        <time>2013-08-04T08:11:59Z</time>
      </trkpt>
      <trkpt lat="48.39063" lon="-4.37513">
        <ele>24.651001</ele>
        <time>2013-08-04T08:12:00Z</time>
      </trkpt>
      <trkpt lat="48.39065" lon="-4.37485">
        <ele>23.6895752</ele>
        <time>2013-08-04T08:12:08Z</time>
      </trkpt>
      <trkpt lat="48.39066" lon="-4.37476">
        <ele>24.651001</ele>
        <time>2013-08-04T08:12:11Z</time>
      </trkpt>
      <trkpt lat="48.3907" lon="-4.37457">
        <ele>26.5736084</ele>
        <time>2013-08-04T08:12:17Z</time>
      </trkpt>
      <trkpt lat="48.39075" lon="-4.37447">
        <ele>26.0928955</ele>
        <time>2013-08-04T08:12:21Z</time>
      </trkpt>
      <trkpt lat="48.39093" lon="-4.37427">
        <ele>31.8607178</ele>
        <time>2013-08-04T08:12:28Z</time>
      </trkpt>
      <trkpt lat="48.39101" lon="-4.37421">
        <ele>34.744873</ele>
        <time>2013-08-04T08:12:30Z</time>
      </trkpt>
      <trkpt lat="48.39114" lon="-4.374">
        <ele>38.5900879</ele>
        <time>2013-08-04T08:12:34Z</time>
      </trkpt>
      <trkpt lat="48.39131" lon="-4.37366">
        <ele>47.2418213</ele>
        <time>2013-08-04T08:12:40Z</time>
      </trkpt>
      <trkpt lat="48.39135" lon="-4.37354">
        <ele>41.473999</ele>
        <time>2013-08-04T08:12:41Z</time>
      </trkpt>
      <trkpt lat="48.3914" lon="-4.37339">
        <ele>38.109375</ele>
        <time>2013-08-04T08:12:43Z</time>
      </trkpt>
      <trkpt lat="48.39153" lon="-4.37324">
        <ele>33.7834473</ele>
        <time>2013-08-04T08:12:47Z</time>
      </trkpt>
      <trkpt lat="48.39158" lon="-4.37318">
        <ele>32.8222656</ele>
        <time>2013-08-04T08:12:50Z</time>
      </trkpt>
      <trkpt lat="48.39167" lon="-4.3731">
        <ele>33.7834473</ele>
        <time>2013-08-04T08:12:54Z</time>
      </trkpt>
      <trkpt lat="48.39171" lon="-4.37305">
        <ele>33.7834473</ele>
        <time>2013-08-04T08:12:56Z</time>
      </trkpt>
      <trkpt lat="48.39193" lon="-4.37288">
        <ele>31.380127</ele>
        <time>2013-08-04T08:13:02Z</time>
      </trkpt>
      <trkpt lat="48.39203" lon="-4.3728">
        <ele>31.380127</ele>
        <time>2013-08-04T08:13:04Z</time>
      </trkpt>
      <trkpt lat="48.39224" lon="-4.37258">
        <ele>27.5349121</ele>
        <time>2013-08-04T08:13:08Z</time>
      </trkpt>
      <trkpt lat="48.39229" lon="-4.3724">
        <ele>26.0928955</ele>
        <time>2013-08-04T08:13:10Z</time>
      </trkpt>
      <trkpt lat="48.39235" lon="-4.3723">
        <ele>25.6123047</ele>
        <time>2013-08-04T08:13:12Z</time>
      </trkpt>
      <trkpt lat="48.39247" lon="-4.37217">
        <ele>26.5736084</ele>
        <time>2013-08-04T08:13:16Z</time>
      </trkpt>
      <trkpt lat="48.39254" lon="-4.37208">
        <ele>28.0155029</ele>
        <time>2013-08-04T08:13:18Z</time>
      </trkpt>
      <trkpt lat="48.39269" lon="-4.37178">
        <ele>24.651001</ele>
        <time>2013-08-04T08:13:22Z</time>
      </trkpt>
      <trkpt lat="48.3928" lon="-4.37133">
        <ele>23.6895752</ele>
        <time>2013-08-04T08:13:27Z</time>
      </trkpt>
      <trkpt lat="48.39283" lon="-4.37114">
        <ele>23.6895752</ele>
        <time>2013-08-04T08:13:29Z</time>
      </trkpt>
      <trkpt lat="48.39288" lon="-4.37097">
        <ele>20.8056641</ele>
        <time>2013-08-04T08:13:32Z</time>
      </trkpt>
      <trkpt lat="48.393" lon="-4.37067">
        <ele>22.2475586</ele>
        <time>2013-08-04T08:13:37Z</time>
      </trkpt>
      <trkpt lat="48.39319" lon="-4.37035">
        <ele>21.286377</ele>
        <time>2013-08-04T08:13:41Z</time>
      </trkpt>
      <trkpt lat="48.39338" lon="-4.37007">
        <ele>21.7669678</ele>
        <time>2013-08-04T08:13:45Z</time>
      </trkpt>
      <trkpt lat="48.39369" lon="-4.36961">
        <ele>18.8830566</ele>
        <time>2013-08-04T08:13:51Z</time>
      </trkpt>
      <trkpt lat="48.39376" lon="-4.36942">
        <ele>17.4411621</ele>
        <time>2013-08-04T08:13:53Z</time>
      </trkpt>
      <trkpt lat="48.3939" lon="-4.36883">
        <ele>13.5958252</ele>
        <time>2013-08-04T08:13:59Z</time>
      </trkpt>
      <trkpt lat="48.39393" lon="-4.36874">
        <ele>12.6343994</ele>
        <time>2013-08-04T08:14:00Z</time>
      </trkpt>
      <trkpt lat="48.39397" lon="-4.36853">
        <ele>12.1538086</ele>
        <time>2013-08-04T08:14:04Z</time>
      </trkpt>
      <trkpt lat="48.39403" lon="-4.36834">
        <ele>10.711792</ele>
        <time>2013-08-04T08:14:09Z</time>
      </trkpt>
      <trkpt lat="48.39414" lon="-4.36823">
        <ele>10.2312012</ele>
        <time>2013-08-04T08:14:13Z</time>
      </trkpt>
      <trkpt lat="48.39415" lon="-4.36822">
        <ele>10.2312012</ele>
        <time>2013-08-04T08:14:14Z</time>
      </trkpt>
      <trkpt lat="48.39421" lon="-4.36821">
        <ele>13.5958252</ele>
        <time>2013-08-04T08:14:17Z</time>
      </trkpt>
      <trkpt lat="48.39435" lon="-4.36826">
        <ele>17.9217529</ele>
        <time>2013-08-04T08:14:22Z</time>
      </trkpt>
      <trkpt lat="48.39437" lon="-4.36828">
        <ele>18.4023438</ele>
        <time>2013-08-04T08:14:23Z</time>
      </trkpt>
      <trkpt lat="48.39451" lon="-4.36843">
        <ele>19.8443604</ele>
        <time>2013-08-04T08:14:29Z</time>
      </trkpt>
      <trkpt lat="48.39466" lon="-4.36856">
        <ele>20.3249512</ele>
        <time>2013-08-04T08:14:34Z</time>
      </trkpt>
      <trkpt lat="48.39468" lon="-4.36858">
        <ele>19.3637695</ele>
        <time>2013-08-04T08:14:35Z</time>
      </trkpt>
      <trkpt lat="48.39477" lon="-4.36855">
        <ele>11.6732178</ele>
        <time>2013-08-04T08:14:40Z</time>
      </trkpt>
      <trkpt lat="48.39475" lon="-4.36839">
        <ele>7.347168</ele>
        <time>2013-08-04T08:14:47Z</time>
      </trkpt>
      <trkpt lat="48.39476" lon="-4.36828">
        <ele>6.3858643</ele>
        <time>2013-08-04T08:14:50Z</time>
      </trkpt>
      <trkpt lat="48.39477" lon="-4.36806">
        <ele>3.5019531</ele>
        <time>2013-08-04T08:14:57Z</time>
      </trkpt>
      <trkpt lat="48.3948" lon="-4.36784">
        <ele>2.0600586</ele>
        <time>2013-08-04T08:15:04Z</time>
      </trkpt>
      <trkpt lat="48.39488" lon="-4.36767">
        <ele>1.0986328</ele>
        <time>2013-08-04T08:15:11Z</time>
      </trkpt>
      <trkpt lat="48.39493" lon="-4.36754">
        <ele>0.1374512</ele>
        <time>2013-08-04T08:15:17Z</time>
      </trkpt>
      <trkpt lat="48.39492" lon="-4.36751">
        <ele>-0.3433838</ele>
        <time>2013-08-04T08:15:19Z</time>
      </trkpt>
      <trkpt lat="48.39495" lon="-4.36735">
        <ele>-0.3433838</ele>
        <time>2013-08-04T08:15:26Z</time>
      </trkpt>
      <trkpt lat="48.39495" lon="-4.3673">
        <ele>-1.3046875</ele>
        <time>2013-08-04T08:15:32Z</time>
      </trkpt>
      <trkpt lat="48.39495" lon="-4.36725">
        <ele>-1.7852783</ele>
        <time>2013-08-04T08:15:38Z</time>
      </trkpt>
      <trkpt lat="48.39492" lon="-4.36723">
        <ele>-0.8240967</ele>
        <time>2013-08-04T08:15:43Z</time>
      </trkpt>
      <trkpt lat="48.39491" lon="-4.36718">
        <ele>5.4245605</ele>
        <time>2013-08-04T08:15:50Z</time>
      </trkpt>
      <trkpt lat="48.39491" lon="-4.3671">
        <ele>9.2698975</ele>
        <time>2013-08-04T08:15:59Z</time>
      </trkpt>
      <trkpt lat="48.39492" lon="-4.36701">
        <ele>15.0377197</ele>
        <time>2013-08-04T08:16:03Z</time>
      </trkpt>
      <trkpt lat="48.39487" lon="-4.36683">
        <ele>21.286377</ele>
        <time>2013-08-04T08:16:09Z</time>
      </trkpt>
      <trkpt lat="48.39487" lon="-4.36671">
        <ele>25.1317139</ele>
        <time>2013-08-04T08:16:13Z</time>
      </trkpt>
      <trkpt lat="48.3949" lon="-4.36668">
        <ele>21.286377</ele>
        <time>2013-08-04T08:16:17Z</time>
      </trkpt>
      <trkpt lat="48.3949" lon="-4.36658">
        <ele>18.4023438</ele>
        <time>2013-08-04T08:16:23Z</time>
      </trkpt>
      <trkpt lat="48.39489" lon="-4.36656">
        <ele>18.8830566</ele>
        <time>2013-08-04T08:16:26Z</time>
      </trkpt>
      <trkpt lat="48.3949" lon="-4.36658">
        <ele>23.2089844</ele>
        <time>2013-08-04T08:16:33Z</time>
      </trkpt>
      <trkpt lat="48.39488" lon="-4.36656">
        <ele>24.1702881</ele>
        <time>2013-08-04T08:16:34Z</time>
      </trkpt>
      <trkpt lat="48.39479" lon="-4.36633">
        <ele>20.8056641</ele>
        <time>2013-08-04T08:16:41Z</time>
      </trkpt>
      <trkpt lat="48.39477" lon="-4.36617">
        <ele>21.286377</ele>
        <time>2013-08-04T08:16:46Z</time>
      </trkpt>
      <trkpt lat="48.39481" lon="-4.36608">
        <ele>26.5736084</ele>
        <time>2013-08-04T08:16:51Z</time>
      </trkpt>
      <trkpt lat="48.39485" lon="-4.36602">
        <ele>25.6123047</ele>
        <time>2013-08-04T08:16:54Z</time>
      </trkpt>
      <trkpt lat="48.39492" lon="-4.3659">
        <ele>22.7282715</ele>
        <time>2013-08-04T08:16:58Z</time>
      </trkpt>
      <trkpt lat="48.39502" lon="-4.36576">
        <ele>23.6895752</ele>
        <time>2013-08-04T08:17:03Z</time>
      </trkpt>
      <trkpt lat="48.39511" lon="-4.36559">
        <ele>22.2475586</ele>
        <time>2013-08-04T08:17:08Z</time>
      </trkpt>
      <trkpt lat="48.39516" lon="-4.36543">
        <ele>23.2089844</ele>
        <time>2013-08-04T08:17:15Z</time>
      </trkpt>
      <trkpt lat="48.39518" lon="-4.36541">
        <ele>23.6895752</ele>
        <time>2013-08-04T08:17:16Z</time>
      </trkpt>
      <trkpt lat="48.3952" lon="-4.36527">
        <ele>23.6895752</ele>
        <time>2013-08-04T08:17:21Z</time>
      </trkpt>
      <trkpt lat="48.39519" lon="-4.36507">
        <ele>26.5736084</ele>
        <time>2013-08-04T08:17:29Z</time>
      </trkpt>
      <trkpt lat="48.3952" lon="-4.36505">
        <ele>27.0543213</ele>
        <time>2013-08-04T08:17:30Z</time>
      </trkpt>
      <trkpt lat="48.39525" lon="-4.36486">
        <ele>22.7282715</ele>
        <time>2013-08-04T08:17:37Z</time>
      </trkpt>
      <trkpt lat="48.39527" lon="-4.3648">
        <ele>23.6895752</ele>
        <time>2013-08-04T08:17:39Z</time>
      </trkpt>
      <trkpt lat="48.39535" lon="-4.36469">
        <ele>31.380127</ele>
        <time>2013-08-04T08:17:45Z</time>
      </trkpt>
      <trkpt lat="48.39543" lon="-4.3645">
        <ele>33.7834473</ele>
        <time>2013-08-04T08:17:52Z</time>
      </trkpt>
      <trkpt lat="48.39544" lon="-4.36445">
        <ele>33.3028564</ele>
        <time>2013-08-04T08:17:54Z</time>
      </trkpt>
      <trkpt lat="48.39545" lon="-4.36432">
        <ele>32.3415527</ele>
        <time>2013-08-04T08:18:00Z</time>
      </trkpt>
      <trkpt lat="48.39552" lon="-4.36409">
        <ele>28.4962158</ele>
        <time>2013-08-04T08:18:07Z</time>
      </trkpt>
      <trkpt lat="48.39553" lon="-4.36407">
        <ele>28.0155029</ele>
        <time>2013-08-04T08:18:08Z</time>
      </trkpt>
      <trkpt lat="48.3956" lon="-4.36392">
        <ele>28.0155029</ele>
        <time>2013-08-04T08:18:14Z</time>
      </trkpt>
      <trkpt lat="48.39565" lon="-4.36384">
        <ele>31.8607178</ele>
        <time>2013-08-04T08:18:18Z</time>
      </trkpt>
      <trkpt lat="48.39569" lon="-4.36374">
        <ele>35.2254639</ele>
        <time>2013-08-04T08:18:22Z</time>
      </trkpt>
      <trkpt lat="48.39575" lon="-4.36364">
        <ele>33.3028564</ele>
        <time>2013-08-04T08:18:26Z</time>
      </trkpt>
      <trkpt lat="48.3958" lon="-4.36346">
        <ele>30.4188232</ele>
        <time>2013-08-04T08:18:32Z</time>
      </trkpt>
      <trkpt lat="48.39582" lon="-4.36338">
        <ele>28.0155029</ele>
        <time>2013-08-04T08:18:35Z</time>
      </trkpt>
      <trkpt lat="48.39586" lon="-4.36322">
        <ele>23.6895752</ele>
        <time>2013-08-04T08:18:41Z</time>
      </trkpt>
      <trkpt lat="48.39587" lon="-4.36318">
        <ele>24.651001</ele>
        <time>2013-08-04T08:18:43Z</time>
      </trkpt>
      <trkpt lat="48.39592" lon="-4.36307">
        <ele>24.1702881</ele>
        <time>2013-08-04T08:18:48Z</time>
      </trkpt>
      <trkpt lat="48.39601" lon="-4.36295">
        <ele>29.4575195</ele>
        <time>2013-08-04T08:18:55Z</time>
      </trkpt>
      <trkpt lat="48.3961" lon="-4.36281">
        <ele>30.8995361</ele>
        <time>2013-08-04T08:19:00Z</time>
      </trkpt>
      <trkpt lat="48.39614" lon="-4.36273">
        <ele>29.4575195</ele>
        <time>2013-08-04T08:19:02Z</time>
      </trkpt>
      <trkpt lat="48.39623" lon="-4.36253">
        <ele>30.4188232</ele>
        <time>2013-08-04T08:19:08Z</time>
      </trkpt>
      <trkpt lat="48.39628" lon="-4.36234">
        <ele>29.9381104</ele>
        <time>2013-08-04T08:19:15Z</time>
      </trkpt>
      <trkpt lat="48.39631" lon="-4.36221">
        <ele>29.4575195</ele>
        <time>2013-08-04T08:19:20Z</time>
      </trkpt>
      <trkpt lat="48.39637" lon="-4.36203">
        <ele>30.4188232</ele>
        <time>2013-08-04T08:19:25Z</time>
      </trkpt>
      <trkpt lat="48.39639" lon="-4.36191">
        <ele>30.8995361</ele>
        <time>2013-08-04T08:19:28Z</time>
      </trkpt>
      <trkpt lat="48.39644" lon="-4.3618">
        <ele>26.5736084</ele>
        <time>2013-08-04T08:19:32Z</time>
      </trkpt>
      <trkpt lat="48.3965" lon="-4.36161">
        <ele>22.2475586</ele>
        <time>2013-08-04T08:19:38Z</time>
      </trkpt>
      <trkpt lat="48.3965" lon="-4.36158">
        <ele>22.7282715</ele>
        <time>2013-08-04T08:19:39Z</time>
      </trkpt>
      <trkpt lat="48.39658" lon="-4.36137">
        <ele>21.7669678</ele>
        <time>2013-08-04T08:19:44Z</time>
      </trkpt>
      <trkpt lat="48.39665" lon="-4.36125">
        <ele>22.2475586</ele>
        <time>2013-08-04T08:19:48Z</time>
      </trkpt>
      <trkpt lat="48.39676" lon="-4.36115">
        <ele>24.651001</ele>
        <time>2013-08-04T08:19:53Z</time>
      </trkpt>
      <trkpt lat="48.39685" lon="-4.361">
        <ele>28.0155029</ele>
        <time>2013-08-04T08:19:58Z</time>
      </trkpt>
      <trkpt lat="48.39684" lon="-4.36077">
        <ele>30.4188232</ele>
        <time>2013-08-04T08:20:04Z</time>
      </trkpt>
      <trkpt lat="48.39684" lon="-4.36055">
        <ele>32.3415527</ele>
        <time>2013-08-04T08:20:10Z</time>
      </trkpt>
      <trkpt lat="48.39687" lon="-4.36037">
        <ele>31.8607178</ele>
        <time>2013-08-04T08:20:15Z</time>
      </trkpt>
      <trkpt lat="48.39692" lon="-4.36025">
        <ele>31.380127</ele>
        <time>2013-08-04T08:20:19Z</time>
      </trkpt>
      <trkpt lat="48.39702" lon="-4.36007">
        <ele>30.8995361</ele>
        <time>2013-08-04T08:20:25Z</time>
      </trkpt>
      <trkpt lat="48.39711" lon="-4.35984">
        <ele>29.9381104</ele>
        <time>2013-08-04T08:20:32Z</time>
      </trkpt>
      <trkpt lat="48.39717" lon="-4.35963">
        <ele>29.4575195</ele>
        <time>2013-08-04T08:20:38Z</time>
      </trkpt>
      <trkpt lat="48.39717" lon="-4.35947">
        <ele>29.9381104</ele>
        <time>2013-08-04T08:20:43Z</time>
      </trkpt>
      <trkpt lat="48.39725" lon="-4.35937">
        <ele>30.4188232</ele>
        <time>2013-08-04T08:20:48Z</time>
      </trkpt>
      <trkpt lat="48.39742" lon="-4.35917">
        <ele>30.4188232</ele>
        <time>2013-08-04T08:20:54Z</time>
      </trkpt>
      <trkpt lat="48.3976" lon="-4.35893">
        <ele>29.4575195</ele>
        <time>2013-08-04T08:20:59Z</time>
      </trkpt>
      <trkpt lat="48.39771" lon="-4.35879">
        <ele>28.9769287</ele>
        <time>2013-08-04T08:21:02Z</time>
      </trkpt>
      <trkpt lat="48.39785" lon="-4.35853">
        <ele>28.0155029</ele>
        <time>2013-08-04T08:21:08Z</time>
      </trkpt>
      <trkpt lat="48.39793" lon="-4.35843">
        <ele>28.0155029</ele>
        <time>2013-08-04T08:21:14Z</time>
      </trkpt>
      <trkpt lat="48.39799" lon="-4.35828">
        <ele>28.0155029</ele>
        <time>2013-08-04T08:21:21Z</time>
      </trkpt>
      <trkpt lat="48.39809" lon="-4.35805">
        <ele>28.4962158</ele>
        <time>2013-08-04T08:21:28Z</time>
      </trkpt>
      <trkpt lat="48.39821" lon="-4.35783">
        <ele>28.9769287</ele>
        <time>2013-08-04T08:21:34Z</time>
      </trkpt>
      <trkpt lat="48.39834" lon="-4.35761">
        <ele>30.4188232</ele>
        <time>2013-08-04T08:21:39Z</time>
      </trkpt>
      <trkpt lat="48.39854" lon="-4.3573">
        <ele>29.9381104</ele>
        <time>2013-08-04T08:21:45Z</time>
      </trkpt>
      <trkpt lat="48.39874" lon="-4.35717">
        <ele>28.9769287</ele>
        <time>2013-08-04T08:21:50Z</time>
      </trkpt>
      <trkpt lat="48.39887" lon="-4.3572">
        <ele>27.5349121</ele>
        <time>2013-08-04T08:21:54Z</time>
      </trkpt>
      <trkpt lat="48.39891" lon="-4.35726">
        <ele>27.5349121</ele>
        <time>2013-08-04T08:21:56Z</time>
      </trkpt>
      <trkpt lat="48.39899" lon="-4.35754">
        <ele>27.0543213</ele>
        <time>2013-08-04T08:22:01Z</time>
      </trkpt>
      <trkpt lat="48.39904" lon="-4.35776">
        <ele>26.0928955</ele>
        <time>2013-08-04T08:22:04Z</time>
      </trkpt>
      <trkpt lat="48.39928" lon="-4.35812">
        <ele>24.1702881</ele>
        <time>2013-08-04T08:22:09Z</time>
      </trkpt>
      <trkpt lat="48.39967" lon="-4.35848">
        <ele>21.7669678</ele>
        <time>2013-08-04T08:22:14Z</time>
      </trkpt>
      <trkpt lat="48.40005" lon="-4.35887">
        <ele>18.4023438</ele>
        <time>2013-08-04T08:22:19Z</time>
      </trkpt>
      <trkpt lat="48.40031" lon="-4.35923">
        <ele>16.9604492</ele>
        <time>2013-08-04T08:22:24Z</time>
      </trkpt>
      <trkpt lat="48.40036" lon="-4.35929">
        <ele>17.4411621</ele>
        <time>2013-08-04T08:22:25Z</time>
      </trkpt>
      <trkpt lat="48.40045" lon="-4.35958">
        <ele>16.4797363</ele>
        <time>2013-08-04T08:22:29Z</time>
      </trkpt>
      <trkpt lat="48.40049" lon="-4.35971">
        <ele>16.4797363</ele>
        <time>2013-08-04T08:22:32Z</time>
      </trkpt>
      <trkpt lat="48.40059" lon="-4.35987">
        <ele>16.4797363</ele>
        <time>2013-08-04T08:22:37Z</time>
      </trkpt>
      <trkpt lat="48.40065" lon="-4.35998">
        <ele>16.4797363</ele>
        <time>2013-08-04T08:22:39Z</time>
      </trkpt>
      <trkpt lat="48.40087" lon="-4.36028">
        <ele>17.9217529</ele>
        <time>2013-08-04T08:22:45Z</time>
      </trkpt>
      <trkpt lat="48.40102" lon="-4.36053">
        <ele>19.3637695</ele>
        <time>2013-08-04T08:22:49Z</time>
      </trkpt>
      <trkpt lat="48.4012" lon="-4.36078">
        <ele>18.4023438</ele>
        <time>2013-08-04T08:22:54Z</time>
      </trkpt>
      <trkpt lat="48.40128" lon="-4.36079">
        <ele>17.4411621</ele>
        <time>2013-08-04T08:22:59Z</time>
      </trkpt>
      <trkpt lat="48.40127" lon="-4.36078">
        <ele>16.4797363</ele>
        <time>2013-08-04T08:23:03Z</time>
      </trkpt>
      <trkpt lat="48.40127" lon="-4.36069">
        <ele>13.1151123</ele>
        <time>2013-08-04T08:23:14Z</time>
      </trkpt>
      <trkpt lat="48.40135" lon="-4.36044">
        <ele>11.1925049</ele>
        <time>2013-08-04T08:23:19Z</time>
      </trkpt>
      <trkpt lat="48.40153" lon="-4.35995">
        <ele>7.347168</ele>
        <time>2013-08-04T08:23:29Z</time>
      </trkpt>
      <trkpt lat="48.40166" lon="-4.35963">
        <ele>5.4245605</ele>
        <time>2013-08-04T08:23:35Z</time>
      </trkpt>
      <trkpt lat="48.40178" lon="-4.3593">
        <ele>4.4632568</ele>
        <time>2013-08-04T08:23:41Z</time>
      </trkpt>
      <trkpt lat="48.40192" lon="-4.3589">
        <ele>4.4632568</ele>
        <time>2013-08-04T08:23:48Z</time>
      </trkpt>
      <trkpt lat="48.40204" lon="-4.35856">
        <ele>3.5019531</ele>
        <time>2013-08-04T08:23:54Z</time>
      </trkpt>
      <trkpt lat="48.40217" lon="-4.35816">
        <ele>3.0212402</ele>
        <time>2013-08-04T08:24:01Z</time>
      </trkpt>
      <trkpt lat="48.40231" lon="-4.35779">
        <ele>3.0212402</ele>
        <time>2013-08-04T08:24:08Z</time>
      </trkpt>
      <trkpt lat="48.40238" lon="-4.35753">
        <ele>2.5406494</ele>
        <time>2013-08-04T08:24:14Z</time>
      </trkpt>
      <trkpt lat="48.40245" lon="-4.35729">
        <ele>2.0600586</ele>
        <time>2013-08-04T08:24:19Z</time>
      </trkpt>
      <trkpt lat="48.4025" lon="-4.35698">
        <ele>2.5406494</ele>
        <time>2013-08-04T08:24:25Z</time>
      </trkpt>
      <trkpt lat="48.40256" lon="-4.35659">
        <ele>2.5406494</ele>
        <time>2013-08-04T08:24:32Z</time>
      </trkpt>
      <trkpt lat="48.40265" lon="-4.35616">
        <ele>2.5406494</ele>
        <time>2013-08-04T08:24:40Z</time>
      </trkpt>
      <trkpt lat="48.40268" lon="-4.35579">
        <ele>2.0600586</ele>
        <time>2013-08-04T08:24:47Z</time>
      </trkpt>
      <trkpt lat="48.40268" lon="-4.35545">
        <ele>2.0600586</ele>
        <time>2013-08-04T08:24:54Z</time>
      </trkpt>
      <trkpt lat="48.40267" lon="-4.35517">
        <ele>2.5406494</ele>
        <time>2013-08-04T08:25:01Z</time>
      </trkpt>
      <trkpt lat="48.40265" lon="-4.35495">
        <ele>2.5406494</ele>
        <time>2013-08-04T08:25:07Z</time>
      </trkpt>
      <trkpt lat="48.40264" lon="-4.3546">
        <ele>2.0600586</ele>
        <time>2013-08-04T08:25:14Z</time>
      </trkpt>
      <trkpt lat="48.4026" lon="-4.35434">
        <ele>2.0600586</ele>
        <time>2013-08-04T08:25:19Z</time>
      </trkpt>
      <trkpt lat="48.40261" lon="-4.35405">
        <ele>3.0212402</ele>
        <time>2013-08-04T08:25:25Z</time>
      </trkpt>
      <trkpt lat="48.40259" lon="-4.35378">
        <ele>2.5406494</ele>
        <time>2013-08-04T08:25:31Z</time>
      </trkpt>
      <trkpt lat="48.4025" lon="-4.35342">
        <ele>3.0212402</ele>
        <time>2013-08-04T08:25:39Z</time>
      </trkpt>
      <trkpt lat="48.40244" lon="-4.35318">
        <ele>3.982666</ele>
        <time>2013-08-04T08:25:46Z</time>
      </trkpt>
      <trkpt lat="48.40239" lon="-4.35289">
        <ele>4.9438477</ele>
        <time>2013-08-04T08:25:54Z</time>
      </trkpt>
      <trkpt lat="48.40236" lon="-4.35268">
        <ele>5.4245605</ele>
        <time>2013-08-04T08:26:00Z</time>
      </trkpt>
      <trkpt lat="48.40231" lon="-4.35249">
        <ele>6.3858643</ele>
        <time>2013-08-04T08:26:07Z</time>
      </trkpt>
      <trkpt lat="48.4023" lon="-4.35244">
        <ele>6.3858643</ele>
        <time>2013-08-04T08:26:12Z</time>
      </trkpt>
      <trkpt lat="48.4023" lon="-4.35243">
        <ele>6.3858643</ele>
        <time>2013-08-04T08:26:13Z</time>
      </trkpt>
      <trkpt lat="48.40217" lon="-4.35253">
        <ele>5.9052734</ele>
        <time>2013-08-04T08:26:52Z</time>
      </trkpt>
      <trkpt lat="48.40212" lon="-4.35259">
        <ele>7.8278809</ele>
        <time>2013-08-04T08:26:55Z</time>
      </trkpt>
      <trkpt lat="48.40204" lon="-4.35268">
        <ele>11.1925049</ele>
        <time>2013-08-04T08:27:01Z</time>
      </trkpt>
      <trkpt lat="48.40201" lon="-4.35273">
        <ele>13.5958252</ele>
        <time>2013-08-04T08:27:03Z</time>
      </trkpt>
      <trkpt lat="48.40194" lon="-4.35275">
        <ele>17.4411621</ele>
        <time>2013-08-04T08:27:07Z</time>
      </trkpt>
      <trkpt lat="48.40185" lon="-4.3527">
        <ele>21.286377</ele>
        <time>2013-08-04T08:27:12Z</time>
      </trkpt>
      <trkpt lat="48.4017" lon="-4.35257">
        <ele>28.0155029</ele>
        <time>2013-08-04T08:27:20Z</time>
      </trkpt>
      <trkpt lat="48.40161" lon="-4.35259">
        <ele>22.2475586</ele>
        <time>2013-08-04T08:27:26Z</time>
      </trkpt>
      <trkpt lat="48.40154" lon="-4.35265">
        <ele>18.8830566</ele>
        <time>2013-08-04T08:27:32Z</time>
      </trkpt>
      <trkpt lat="48.40151" lon="-4.35271">
        <ele>17.4411621</ele>
        <time>2013-08-04T08:27:36Z</time>
      </trkpt>
      <trkpt lat="48.40145" lon="-4.35286">
        <ele>19.3637695</ele>
        <time>2013-08-04T08:27:44Z</time>
      </trkpt>
      <trkpt lat="48.40142" lon="-4.35291">
        <ele>20.8056641</ele>
        <time>2013-08-04T08:27:46Z</time>
      </trkpt>
      <trkpt lat="48.40138" lon="-4.35298">
        <ele>18.8830566</ele>
        <time>2013-08-04T08:27:51Z</time>
      </trkpt>
      <trkpt lat="48.40134" lon="-4.35308">
        <ele>15.5184326</ele>
        <time>2013-08-04T08:27:59Z</time>
      </trkpt>
      <trkpt lat="48.40128" lon="-4.35325">
        <ele>19.8443604</ele>
        <time>2013-08-04T08:28:07Z</time>
      </trkpt>
      <trkpt lat="48.40125" lon="-4.35335">
        <ele>22.2475586</ele>
        <time>2013-08-04T08:28:13Z</time>
      </trkpt>
      <trkpt lat="48.40117" lon="-4.35347">
        <ele>26.5736084</ele>
        <time>2013-08-04T08:28:19Z</time>
      </trkpt>
      <trkpt lat="48.4011" lon="-4.35359">
        <ele>28.4962158</ele>
        <time>2013-08-04T08:28:25Z</time>
      </trkpt>
      <trkpt lat="48.40102" lon="-4.35374">
        <ele>26.5736084</ele>
        <time>2013-08-04T08:28:31Z</time>
      </trkpt>
      <trkpt lat="48.40094" lon="-4.35394">
        <ele>24.651001</ele>
        <time>2013-08-04T08:28:38Z</time>
      </trkpt>
      <trkpt lat="48.40077" lon="-4.35422">
        <ele>21.286377</ele>
        <time>2013-08-04T08:28:49Z</time>
      </trkpt>
      <trkpt lat="48.40061" lon="-4.3545">
        <ele>23.6895752</ele>
        <time>2013-08-04T08:28:58Z</time>
      </trkpt>
      <trkpt lat="48.40048" lon="-4.35474">
        <ele>29.9381104</ele>
        <time>2013-08-04T08:29:05Z</time>
      </trkpt>
      <trkpt lat="48.40038" lon="-4.35489">
        <ele>33.3028564</ele>
        <time>2013-08-04T08:29:12Z</time>
      </trkpt>
      <trkpt lat="48.40028" lon="-4.35512">
        <ele>34.2641602</ele>
        <time>2013-08-04T08:29:19Z</time>
      </trkpt>
      <trkpt lat="48.40017" lon="-4.35545">
        <ele>27.5349121</ele>
        <time>2013-08-04T08:29:29Z</time>
      </trkpt>
      <trkpt lat="48.40003" lon="-4.35574">
        <ele>24.1702881</ele>
        <time>2013-08-04T08:29:38Z</time>
      </trkpt>
      <trkpt lat="48.39985" lon="-4.35603">
        <ele>33.3028564</ele>
        <time>2013-08-04T08:29:46Z</time>
      </trkpt>
      <trkpt lat="48.39967" lon="-4.35625">
        <ele>35.7060547</ele>
        <time>2013-08-04T08:29:55Z</time>
      </trkpt>
      <trkpt lat="48.3995" lon="-4.35649">
        <ele>35.2254639</ele>
        <time>2013-08-04T08:30:04Z</time>
      </trkpt>
      <trkpt lat="48.39929" lon="-4.35682">
        <ele>32.8222656</ele>
        <time>2013-08-04T08:30:16Z</time>
      </trkpt>
      <trkpt lat="48.39911" lon="-4.35707">
        <ele>33.3028564</ele>
        <time>2013-08-04T08:30:26Z</time>
      </trkpt>
      <trkpt lat="48.39894" lon="-4.35723">
        <ele>39.5512695</ele>
        <time>2013-08-04T08:30:33Z</time>
      </trkpt>
      <trkpt lat="48.39885" lon="-4.35723">
        <ele>41.9547119</ele>
        <time>2013-08-04T08:30:37Z</time>
      </trkpt>
      <trkpt lat="48.39877" lon="-4.35712">
        <ele>45.3192139</ele>
        <time>2013-08-04T08:30:42Z</time>
      </trkpt>
      <trkpt lat="48.39872" lon="-4.35695">
        <ele>47.7225342</ele>
        <time>2013-08-04T08:30:49Z</time>
      </trkpt>
      <trkpt lat="48.39862" lon="-4.35678">
        <ele>47.7225342</ele>
        <time>2013-08-04T08:30:57Z</time>
      </trkpt>
      <trkpt lat="48.39856" lon="-4.35664">
        <ele>45.3192139</ele>
        <time>2013-08-04T08:31:05Z</time>
      </trkpt>
      <trkpt lat="48.39849" lon="-4.35651">
        <ele>41.9547119</ele>
        <time>2013-08-04T08:31:13Z</time>
      </trkpt>
      <trkpt lat="48.39845" lon="-4.35641">
        <ele>40.9934082</ele>
        <time>2013-08-04T08:31:18Z</time>
      </trkpt>
      <trkpt lat="48.39841" lon="-4.3563">
        <ele>41.9547119</ele>
        <time>2013-08-04T08:31:23Z</time>
      </trkpt>
      <trkpt lat="48.3984" lon="-4.35621">
        <ele>42.4354248</ele>
        <time>2013-08-04T08:31:29Z</time>
      </trkpt>
      <trkpt lat="48.39836" lon="-4.35605">
        <ele>39.5512695</ele>
        <time>2013-08-04T08:31:37Z</time>
      </trkpt>
      <trkpt lat="48.39834" lon="-4.35593">
        <ele>42.9160156</ele>
        <time>2013-08-04T08:31:44Z</time>
      </trkpt>
      <trkpt lat="48.39831" lon="-4.35579">
        <ele>43.8773193</ele>
        <time>2013-08-04T08:31:50Z</time>
      </trkpt>
      <trkpt lat="48.39828" lon="-4.3557">
        <ele>42.9160156</ele>
        <time>2013-08-04T08:31:54Z</time>
      </trkpt>
      <trkpt lat="48.39826" lon="-4.35552">
        <ele>40.5128174</ele>
        <time>2013-08-04T08:32:02Z</time>
      </trkpt>
      <trkpt lat="48.39826" lon="-4.35538">
        <ele>40.5128174</ele>
        <time>2013-08-04T08:32:09Z</time>
      </trkpt>
      <trkpt lat="48.39826" lon="-4.3553">
        <ele>42.9160156</ele>
        <time>2013-08-04T08:32:15Z</time>
      </trkpt>
      <trkpt lat="48.39823" lon="-4.35525">
        <ele>44.3580322</ele>
        <time>2013-08-04T08:32:21Z</time>
      </trkpt>
      <trkpt lat="48.39818" lon="-4.35518">
        <ele>49.1645508</ele>
        <time>2013-08-04T08:32:28Z</time>
      </trkpt>
      <trkpt lat="48.39811" lon="-4.3551">
        <ele>51.5678711</ele>
        <time>2013-08-04T08:32:33Z</time>
      </trkpt>
      <trkpt lat="48.39806" lon="-4.35504">
        <ele>55.4130859</ele>
        <time>2013-08-04T08:32:42Z</time>
      </trkpt>
      <trkpt lat="48.398" lon="-4.35498">
        <ele>57.3358154</ele>
        <time>2013-08-04T08:32:48Z</time>
      </trkpt>
      <trkpt lat="48.39794" lon="-4.3549">
        <ele>59.7391357</ele>
        <time>2013-08-04T08:32:54Z</time>
      </trkpt>
      <trkpt lat="48.39787" lon="-4.35481">
        <ele>61.6617432</ele>
        <time>2013-08-04T08:33:01Z</time>
      </trkpt>
      <trkpt lat="48.39778" lon="-4.35471">
        <ele>63.5843506</ele>
        <time>2013-08-04T08:33:10Z</time>
      </trkpt>
      <trkpt lat="48.39773" lon="-4.35468">
        <ele>64.0650635</ele>
        <time>2013-08-04T08:33:15Z</time>
      </trkpt>
      <trkpt lat="48.3977" lon="-4.35466">
        <ele>64.0650635</ele>
        <time>2013-08-04T08:33:18Z</time>
      </trkpt>
      <trkpt lat="48.39767" lon="-4.35457">
        <ele>64.5456543</ele>
        <time>2013-08-04T08:33:23Z</time>
      </trkpt>
      <trkpt lat="48.39767" lon="-4.35462">
        <ele>64.5456543</ele>
        <time>2013-08-04T08:33:29Z</time>
      </trkpt>
      <trkpt lat="48.39768" lon="-4.35462">
        <ele>64.5456543</ele>
        <time>2013-08-04T08:33:31Z</time>
      </trkpt>
      <trkpt lat="48.3976" lon="-4.35464">
        <ele>70.7941895</ele>
        <time>2013-08-04T08:34:41Z</time>
      </trkpt>
      <trkpt lat="48.39758" lon="-4.35465">
        <ele>71.7554932</ele>
        <time>2013-08-04T08:34:42Z</time>
      </trkpt>
      <trkpt lat="48.39746" lon="-4.35472">
        <ele>75.6008301</ele>
        <time>2013-08-04T08:34:49Z</time>
      </trkpt>
      <trkpt lat="48.39737" lon="-4.35464">
        <ele>77.5234375</ele>
        <time>2013-08-04T08:34:56Z</time>
      </trkpt>
      <trkpt lat="48.39726" lon="-4.35448">
        <ele>77.5234375</ele>
        <time>2013-08-04T08:35:05Z</time>
      </trkpt>
      <trkpt lat="48.39719" lon="-4.35439">
        <ele>78.0040283</ele>
        <time>2013-08-04T08:35:11Z</time>
      </trkpt>
      <trkpt lat="48.39707" lon="-4.35424">
        <ele>80.4074707</ele>
        <time>2013-08-04T08:35:20Z</time>
      </trkpt>
      <trkpt lat="48.39692" lon="-4.35413">
        <ele>81.8493652</ele>
        <time>2013-08-04T08:35:27Z</time>
      </trkpt>
      <trkpt lat="48.39666" lon="-4.35402">
        <ele>80.8881836</ele>
        <time>2013-08-04T08:35:37Z</time>
      </trkpt>
      <trkpt lat="48.39643" lon="-4.35393">
        <ele>80.8881836</ele>
        <time>2013-08-04T08:35:45Z</time>
      </trkpt>
      <trkpt lat="48.39625" lon="-4.35382">
        <ele>80.8881836</ele>
        <time>2013-08-04T08:35:52Z</time>
      </trkpt>
      <trkpt lat="48.39597" lon="-4.35361">
        <ele>80.4074707</ele>
        <time>2013-08-04T08:36:03Z</time>
      </trkpt>
      <trkpt lat="48.39586" lon="-4.35343">
        <ele>80.4074707</ele>
        <time>2013-08-04T08:36:09Z</time>
      </trkpt>
      <trkpt lat="48.39589" lon="-4.35319">
        <ele>80.4074707</ele>
        <time>2013-08-04T08:36:15Z</time>
      </trkpt>
      <trkpt lat="48.39602" lon="-4.35295">
        <ele>79.4460449</ele>
        <time>2013-08-04T08:36:22Z</time>
      </trkpt>
      <trkpt lat="48.3962" lon="-4.35268">
        <ele>78.4847412</ele>
        <time>2013-08-04T08:36:30Z</time>
      </trkpt>
      <trkpt lat="48.39629" lon="-4.35251">
        <ele>80.4074707</ele>
        <time>2013-08-04T08:36:37Z</time>
      </trkpt>
      <trkpt lat="48.39634" lon="-4.35244">
        <ele>80.4074707</ele>
        <time>2013-08-04T08:36:40Z</time>
      </trkpt>
      <trkpt lat="48.39632" lon="-4.3524">
        <ele>80.4074707</ele>
        <time>2013-08-04T08:36:45Z</time>
      </trkpt>
      <trkpt lat="48.39626" lon="-4.35251">
        <ele>79.9266357</ele>
        <time>2013-08-04T08:36:50Z</time>
      </trkpt>
      <trkpt lat="48.39618" lon="-4.3525">
        <ele>81.3687744</ele>
        <time>2013-08-04T08:36:54Z</time>
      </trkpt>
      <trkpt lat="48.39611" lon="-4.35239">
        <ele>81.8493652</ele>
        <time>2013-08-04T08:36:58Z</time>
      </trkpt>
      <trkpt lat="48.396" lon="-4.35204">
        <ele>83.2913818</ele>
        <time>2013-08-04T08:37:07Z</time>
      </trkpt>
      <trkpt lat="48.39593" lon="-4.35175">
        <ele>84.2526855</ele>
        <time>2013-08-04T08:37:15Z</time>
      </trkpt>
      <trkpt lat="48.39578" lon="-4.35137">
        <ele>83.7719727</ele>
        <time>2013-08-04T08:37:25Z</time>
      </trkpt>
      <trkpt lat="48.39568" lon="-4.35104">
        <ele>84.2526855</ele>
        <time>2013-08-04T08:37:34Z</time>
      </trkpt>
      <trkpt lat="48.39564" lon="-4.35088">
        <ele>82.810791</ele>
        <time>2013-08-04T08:37:40Z</time>
      </trkpt>
      <trkpt lat="48.3956" lon="-4.35065">
        <ele>81.8493652</ele>
        <time>2013-08-04T08:37:48Z</time>
      </trkpt>
      <trkpt lat="48.39559" lon="-4.35052">
        <ele>81.3687744</ele>
        <time>2013-08-04T08:37:53Z</time>
      </trkpt>
      <trkpt lat="48.3956" lon="-4.3503">
        <ele>80.4074707</ele>
        <time>2013-08-04T08:38:01Z</time>
      </trkpt>
      <trkpt lat="48.39565" lon="-4.35017">
        <ele>79.9266357</ele>
        <time>2013-08-04T08:38:08Z</time>
      </trkpt>
      <trkpt lat="48.39567" lon="-4.35004">
        <ele>78.0040283</ele>
        <time>2013-08-04T08:38:14Z</time>
      </trkpt>
      <trkpt lat="48.39572" lon="-4.34984">
        <ele>76.0814209</ele>
        <time>2013-08-04T08:38:20Z</time>
      </trkpt>
      <trkpt lat="48.39578" lon="-4.34968">
        <ele>76.0814209</ele>
        <time>2013-08-04T08:38:25Z</time>
      </trkpt>
      <trkpt lat="48.39587" lon="-4.34946">
        <ele>77.5234375</ele>
        <time>2013-08-04T08:38:31Z</time>
      </trkpt>
      <trkpt lat="48.39597" lon="-4.34923">
        <ele>79.9266357</ele>
        <time>2013-08-04T08:38:37Z</time>
      </trkpt>
      <trkpt lat="48.39605" lon="-4.34901">
        <ele>82.3300781</ele>
        <time>2013-08-04T08:38:43Z</time>
      </trkpt>
      <trkpt lat="48.39616" lon="-4.34874">
        <ele>83.2913818</ele>
        <time>2013-08-04T08:38:50Z</time>
      </trkpt>
      <trkpt lat="48.39622" lon="-4.34851">
        <ele>81.8493652</ele>
        <time>2013-08-04T08:38:56Z</time>
      </trkpt>
      <trkpt lat="48.39626" lon="-4.34821">
        <ele>79.9266357</ele>
        <time>2013-08-04T08:39:02Z</time>
      </trkpt>
      <trkpt lat="48.39634" lon="-4.34806">
        <ele>83.2913818</ele>
        <time>2013-08-04T08:39:06Z</time>
      </trkpt>
      <trkpt lat="48.39644" lon="-4.34799">
        <ele>88.0980225</ele>
        <time>2013-08-04T08:39:10Z</time>
      </trkpt>
      <trkpt lat="48.39668" lon="-4.34791">
        <ele>90.0206299</ele>
        <time>2013-08-04T08:39:16Z</time>
      </trkpt>
      <trkpt lat="48.39677" lon="-4.34785">
        <ele>88.5787354</ele>
        <time>2013-08-04T08:39:18Z</time>
      </trkpt>
      <trkpt lat="48.39701" lon="-4.34751">
        <ele>83.7719727</ele>
        <time>2013-08-04T08:39:23Z</time>
      </trkpt>
      <trkpt lat="48.39722" lon="-4.347">
        <ele>82.810791</ele>
        <time>2013-08-04T08:39:30Z</time>
      </trkpt>
      <trkpt lat="48.39725" lon="-4.34692">
        <ele>82.3300781</ele>
        <time>2013-08-04T08:39:31Z</time>
      </trkpt>
      <trkpt lat="48.39734" lon="-4.34679">
        <ele>82.3300781</ele>
        <time>2013-08-04T08:39:33Z</time>
      </trkpt>
      <trkpt lat="48.39767" lon="-4.34644">
        <ele>82.3300781</ele>
        <time>2013-08-04T08:39:39Z</time>
      </trkpt>
      <trkpt lat="48.39804" lon="-4.34613">
        <ele>78.0040283</ele>
        <time>2013-08-04T08:39:45Z</time>
      </trkpt>
      <trkpt lat="48.39832" lon="-4.34572">
        <ele>70.7941895</ele>
        <time>2013-08-04T08:39:50Z</time>
      </trkpt>
      <trkpt lat="48.39836" lon="-4.34563">
        <ele>70.7941895</ele>
        <time>2013-08-04T08:39:51Z</time>
      </trkpt>
      <trkpt lat="48.39853" lon="-4.34518">
        <ele>70.7941895</ele>
        <time>2013-08-04T08:39:56Z</time>
      </trkpt>
      <trkpt lat="48.39862" lon="-4.34496">
        <ele>73.6782227</ele>
        <time>2013-08-04T08:40:00Z</time>
      </trkpt>
      <trkpt lat="48.39875" lon="-4.34474">
        <ele>70.7941895</ele>
        <time>2013-08-04T08:40:04Z</time>
      </trkpt>
      <trkpt lat="48.39891" lon="-4.34461">
        <ele>75.6008301</ele>
        <time>2013-08-04T08:40:08Z</time>
      </trkpt>
      <trkpt lat="48.39907" lon="-4.34445">
        <ele>78.9654541</ele>
        <time>2013-08-04T08:40:13Z</time>
      </trkpt>
      <trkpt lat="48.3992" lon="-4.3443">
        <ele>79.4460449</ele>
        <time>2013-08-04T08:40:18Z</time>
      </trkpt>
      <trkpt lat="48.39934" lon="-4.34413">
        <ele>78.0040283</ele>
        <time>2013-08-04T08:40:23Z</time>
      </trkpt>
      <trkpt lat="48.39938" lon="-4.34406">
        <ele>74.6395264</ele>
        <time>2013-08-04T08:40:26Z</time>
      </trkpt>
      <trkpt lat="48.39947" lon="-4.34395">
        <ele>76.0814209</ele>
        <time>2013-08-04T08:40:32Z</time>
      </trkpt>
      <trkpt lat="48.39953" lon="-4.34387">
        <ele>74.1588135</ele>
        <time>2013-08-04T08:40:35Z</time>
      </trkpt>
      <trkpt lat="48.39962" lon="-4.34372">
        <ele>68.871582</ele>
        <time>2013-08-04T08:40:41Z</time>
      </trkpt>
      <trkpt lat="48.39977" lon="-4.34347">
        <ele>64.5456543</ele>
        <time>2013-08-04T08:40:49Z</time>
      </trkpt>
      <trkpt lat="48.39977" lon="-4.34345">
        <ele>64.5456543</ele>
        <time>2013-08-04T08:40:50Z</time>
      </trkpt>
      <trkpt lat="48.39985" lon="-4.34331">
        <ele>65.9876709</ele>
        <time>2013-08-04T08:40:56Z</time>
      </trkpt>
      <trkpt lat="48.39994" lon="-4.34317">
        <ele>70.7941895</ele>
        <time>2013-08-04T08:41:01Z</time>
      </trkpt>
      <trkpt lat="48.4" lon="-4.34296">
        <ele>66.4682617</ele>
        <time>2013-08-04T08:41:07Z</time>
      </trkpt>
      <trkpt lat="48.40007" lon="-4.3428">
        <ele>61.6617432</ele>
        <time>2013-08-04T08:41:12Z</time>
      </trkpt>
      <trkpt lat="48.40024" lon="-4.34255">
        <ele>62.142334</ele>
        <time>2013-08-04T08:41:20Z</time>
      </trkpt>
      <trkpt lat="48.40031" lon="-4.34237">
        <ele>62.6229248</ele>
        <time>2013-08-04T08:41:25Z</time>
      </trkpt>
      <trkpt lat="48.40037" lon="-4.34206">
        <ele>58.77771</ele>
        <time>2013-08-04T08:41:32Z</time>
      </trkpt>
      <trkpt lat="48.40041" lon="-4.34183">
        <ele>57.3358154</ele>
        <time>2013-08-04T08:41:36Z</time>
      </trkpt>
      <trkpt lat="48.40045" lon="-4.34157">
        <ele>59.2584229</ele>
        <time>2013-08-04T08:41:40Z</time>
      </trkpt>
      <trkpt lat="48.40046" lon="-4.3415">
        <ele>59.7391357</ele>
        <time>2013-08-04T08:41:41Z</time>
      </trkpt>
      <trkpt lat="48.40049" lon="-4.34136">
        <ele>59.2584229</ele>
        <time>2013-08-04T08:41:43Z</time>
      </trkpt>
      <trkpt lat="48.40055" lon="-4.34109">
        <ele>60.7003174</ele>
        <time>2013-08-04T08:41:47Z</time>
      </trkpt>
      <trkpt lat="48.40061" lon="-4.34086">
        <ele>60.7003174</ele>
        <time>2013-08-04T08:41:50Z</time>
      </trkpt>
      <trkpt lat="48.40068" lon="-4.34062">
        <ele>61.6617432</ele>
        <time>2013-08-04T08:41:53Z</time>
      </trkpt>
      <trkpt lat="48.40076" lon="-4.34027">
        <ele>63.1036377</ele>
        <time>2013-08-04T08:41:58Z</time>
      </trkpt>
      <trkpt lat="48.40076" lon="-4.34024">
        <ele>62.142334</ele>
        <time>2013-08-04T08:41:59Z</time>
      </trkpt>
      <trkpt lat="48.40074" lon="-4.34022">
        <ele>58.77771</ele>
        <time>2013-08-04T08:42:04Z</time>
      </trkpt>
      <trkpt lat="48.40067" lon="-4.33991">
        <ele>62.6229248</ele>
        <time>2013-08-04T08:43:35Z</time>
      </trkpt>
      <trkpt lat="48.40066" lon="-4.3399">
        <ele>61.6617432</ele>
        <time>2013-08-04T08:43:36Z</time>
      </trkpt>
      <trkpt lat="48.40068" lon="-4.33983">
        <ele>62.6229248</ele>
        <time>2013-08-04T08:43:42Z</time>
      </trkpt>
      <trkpt lat="48.40068" lon="-4.33976">
        <ele>60.7003174</ele>
        <time>2013-08-04T08:43:50Z</time>
      </trkpt>
      <trkpt lat="48.40068" lon="-4.33974">
        <ele>61.1810303</ele>
        <time>2013-08-04T08:43:53Z</time>
      </trkpt>
      <trkpt lat="48.40068" lon="-4.33974">
        <ele>71.2749023</ele>
        <time>2013-08-04T08:44:46Z</time>
      </trkpt>
      <trkpt lat="48.40068" lon="-4.33975">
        <ele>71.7554932</ele>
        <time>2013-08-04T08:44:47Z</time>
      </trkpt>
      <trkpt lat="48.40071" lon="-4.33982">
        <ele>76.5621338</ele>
        <time>2013-08-04T08:44:53Z</time>
      </trkpt>
      <trkpt lat="48.40071" lon="-4.33983">
        <ele>75.6008301</ele>
        <time>2013-08-04T08:45:03Z</time>
      </trkpt>
      <trkpt lat="48.40069" lon="-4.3398">
        <ele>71.2749023</ele>
        <time>2013-08-04T08:45:07Z</time>
      </trkpt>
      <trkpt lat="48.40065" lon="-4.33971">
        <ele>65.9876709</ele>
        <time>2013-08-04T08:45:18Z</time>
      </trkpt>
      <trkpt lat="48.40063" lon="-4.33962">
        <ele>53.9711914</ele>
        <time>2013-08-04T08:45:33Z</time>
      </trkpt>
      <trkpt lat="48.40077" lon="-4.33949">
        <ele>55.4130859</ele>
        <time>2013-08-04T08:46:51Z</time>
      </trkpt>
      <trkpt lat="48.40079" lon="-4.33935">
        <ele>58.77771</ele>
        <time>2013-08-04T08:46:56Z</time>
      </trkpt>
      <trkpt lat="48.40079" lon="-4.33932">
        <ele>58.77771</ele>
        <time>2013-08-04T08:46:57Z</time>
      </trkpt>
      <trkpt lat="48.40089" lon="-4.33921">
        <ele>62.142334</ele>
        <time>2013-08-04T08:47:02Z</time>
      </trkpt>
      <trkpt lat="48.40107" lon="-4.33898">
        <ele>68.871582</ele>
        <time>2013-08-04T08:47:08Z</time>
      </trkpt>
      <trkpt lat="48.40108" lon="-4.33894">
        <ele>66.4682617</ele>
        <time>2013-08-04T08:47:13Z</time>
      </trkpt>
      <trkpt lat="48.40119" lon="-4.33868">
        <ele>59.2584229</ele>
        <time>2013-08-04T08:48:09Z</time>
      </trkpt>
      <trkpt lat="48.40123" lon="-4.3385">
        <ele>57.8165283</ele>
        <time>2013-08-04T08:48:12Z</time>
      </trkpt>
      <trkpt lat="48.40128" lon="-4.33833">
        <ele>60.2197266</ele>
        <time>2013-08-04T08:48:16Z</time>
      </trkpt>
      <trkpt lat="48.40132" lon="-4.33825">
        <ele>59.2584229</ele>
        <time>2013-08-04T08:48:22Z</time>
      </trkpt>
      <trkpt lat="48.40132" lon="-4.33822">
        <ele>56.8551025</ele>
        <time>2013-08-04T08:48:27Z</time>
      </trkpt>
      <trkpt lat="48.40138" lon="-4.33804">
        <ele>47.2418213</ele>
        <time>2013-08-04T08:50:58Z</time>
      </trkpt>
      <trkpt lat="48.40138" lon="-4.33802">
        <ele>46.2806396</ele>
        <time>2013-08-04T08:50:59Z</time>
      </trkpt>
      <trkpt lat="48.40139" lon="-4.33791">
        <ele>43.3966064</ele>
        <time>2013-08-04T08:51:05Z</time>
      </trkpt>
      <trkpt lat="48.40139" lon="-4.33789">
        <ele>42.9160156</ele>
        <time>2013-08-04T08:51:09Z</time>
      </trkpt>
      <trkpt lat="48.4014" lon="-4.33787">
        <ele>44.3580322</ele>
        <time>2013-08-04T08:51:13Z</time>
      </trkpt>
      <trkpt lat="48.40144" lon="-4.33772">
        <ele>46.7612305</ele>
        <time>2013-08-04T08:51:18Z</time>
      </trkpt>
      <trkpt lat="48.40149" lon="-4.33758">
        <ele>46.7612305</ele>
        <time>2013-08-04T08:51:23Z</time>
      </trkpt>
      <trkpt lat="48.40155" lon="-4.3375">
        <ele>47.2418213</ele>
        <time>2013-08-04T08:51:29Z</time>
      </trkpt>
      <trkpt lat="48.40157" lon="-4.33749">
        <ele>48.2033691</ele>
        <time>2013-08-04T08:51:33Z</time>
      </trkpt>
      <trkpt lat="48.4016" lon="-4.33742">
        <ele>44.838623</ele>
        <time>2013-08-04T08:53:12Z</time>
      </trkpt>
      <trkpt lat="48.40161" lon="-4.33743">
        <ele>46.2806396</ele>
        <time>2013-08-04T08:53:13Z</time>
      </trkpt>
      <trkpt lat="48.40162" lon="-4.33739">
        <ele>50.6065674</ele>
        <time>2013-08-04T08:53:20Z</time>
      </trkpt>
      <trkpt lat="48.40164" lon="-4.33741">
        <ele>50.1259766</ele>
        <time>2013-08-04T08:53:26Z</time>
      </trkpt>
      <trkpt lat="48.40168" lon="-4.33745">
        <ele>51.5678711</ele>
        <time>2013-08-04T08:53:41Z</time>
      </trkpt>
      <trkpt lat="48.40203" lon="-4.33698">
        <ele>53.4904785</ele>
        <time>2013-08-04T08:55:08Z</time>
      </trkpt>
      <trkpt lat="48.40205" lon="-4.33689">
        <ele>47.2418213</ele>
        <time>2013-08-04T08:55:12Z</time>
      </trkpt>
      <trkpt lat="48.40207" lon="-4.33684">
        <ele>45.7999268</ele>
        <time>2013-08-04T08:55:15Z</time>
      </trkpt>
      <trkpt lat="48.4021" lon="-4.33672">
        <ele>42.4354248</ele>
        <time>2013-08-04T08:55:23Z</time>
      </trkpt>
      <trkpt lat="48.40217" lon="-4.33669">
        <ele>44.3580322</ele>
        <time>2013-08-04T08:55:32Z</time>
      </trkpt>
      <trkpt lat="48.4022" lon="-4.33665">
        <ele>44.838623</ele>
        <time>2013-08-04T08:55:38Z</time>
      </trkpt>
      <trkpt lat="48.40223" lon="-4.33662">
        <ele>44.3580322</ele>
        <time>2013-08-04T08:55:44Z</time>
      </trkpt>
      <trkpt lat="48.40226" lon="-4.33656">
        <ele>45.7999268</ele>
        <time>2013-08-04T08:55:50Z</time>
      </trkpt>
      <trkpt lat="48.40225" lon="-4.33651">
        <ele>44.3580322</ele>
        <time>2013-08-04T08:55:55Z</time>
      </trkpt>
      <trkpt lat="48.40226" lon="-4.33642">
        <ele>41.9547119</ele>
        <time>2013-08-04T08:56:03Z</time>
      </trkpt>
      <trkpt lat="48.4023" lon="-4.33637">
        <ele>43.8773193</ele>
        <time>2013-08-04T08:56:10Z</time>
      </trkpt>
      <trkpt lat="48.4023" lon="-4.3363">
        <ele>45.3192139</ele>
        <time>2013-08-04T08:56:15Z</time>
      </trkpt>
      <trkpt lat="48.40228" lon="-4.33622">
        <ele>41.473999</ele>
        <time>2013-08-04T08:56:22Z</time>
      </trkpt>
      <trkpt lat="48.40228" lon="-4.33612">
        <ele>38.5900879</ele>
        <time>2013-08-04T08:56:35Z</time>
      </trkpt>
      <trkpt lat="48.40266" lon="-4.33554">
        <ele>49.6452637</ele>
        <time>2013-08-04T08:58:21Z</time>
      </trkpt>
      <trkpt lat="48.40273" lon="-4.3355">
        <ele>54.4517822</ele>
        <time>2013-08-04T08:58:27Z</time>
      </trkpt>
      <trkpt lat="48.40275" lon="-4.33547">
        <ele>53.0097656</ele>
        <time>2013-08-04T08:58:32Z</time>
      </trkpt>
      <trkpt lat="48.40278" lon="-4.33542">
        <ele>54.932373</ele>
        <time>2013-08-04T08:58:39Z</time>
      </trkpt>
      <trkpt lat="48.40283" lon="-4.33538">
        <ele>56.8551025</ele>
        <time>2013-08-04T08:58:48Z</time>
      </trkpt>
      <trkpt lat="48.40292" lon="-4.33534">
        <ele>61.1810303</ele>
        <time>2013-08-04T08:59:01Z</time>
      </trkpt>
      <trkpt lat="48.40296" lon="-4.3353">
        <ele>57.3358154</ele>
        <time>2013-08-04T08:59:07Z</time>
      </trkpt>
      <trkpt lat="48.40299" lon="-4.33521">
        <ele>51.0871582</ele>
        <time>2013-08-04T08:59:13Z</time>
      </trkpt>
      <trkpt lat="48.403" lon="-4.3352">
        <ele>49.6452637</ele>
        <time>2013-08-04T08:59:15Z</time>
      </trkpt>
      <trkpt lat="48.40307" lon="-4.33514">
        <ele>46.7612305</ele>
        <time>2013-08-04T08:59:22Z</time>
      </trkpt>
      <trkpt lat="48.40308" lon="-4.33513">
        <ele>46.2806396</ele>
        <time>2013-08-04T08:59:23Z</time>
      </trkpt>
      <trkpt lat="48.40312" lon="-4.33505">
        <ele>43.8773193</ele>
        <time>2013-08-04T08:59:30Z</time>
      </trkpt>
      <trkpt lat="48.40321" lon="-4.33504">
        <ele>45.3192139</ele>
        <time>2013-08-04T08:59:39Z</time>
      </trkpt>
      <trkpt lat="48.40326" lon="-4.33503">
        <ele>45.7999268</ele>
        <time>2013-08-04T08:59:49Z</time>
      </trkpt>
      <trkpt lat="48.4034" lon="-4.33501">
        <ele>44.3580322</ele>
        <time>2013-08-04T09:01:18Z</time>
      </trkpt>
      <trkpt lat="48.40341" lon="-4.33499">
        <ele>44.3580322</ele>
        <time>2013-08-04T09:01:19Z</time>
      </trkpt>
      <trkpt lat="48.40349" lon="-4.33489">
        <ele>45.3192139</ele>
        <time>2013-08-04T09:01:22Z</time>
      </trkpt>
      <trkpt lat="48.40355" lon="-4.33476">
        <ele>44.3580322</ele>
        <time>2013-08-04T09:01:26Z</time>
      </trkpt>
      <trkpt lat="48.40369" lon="-4.33449">
        <ele>42.4354248</ele>
        <time>2013-08-04T09:01:33Z</time>
      </trkpt>
      <trkpt lat="48.40382" lon="-4.33428">
        <ele>42.4354248</ele>
        <time>2013-08-04T09:01:39Z</time>
      </trkpt>
      <trkpt lat="48.40394" lon="-4.33404">
        <ele>44.3580322</ele>
        <time>2013-08-04T09:01:45Z</time>
      </trkpt>
      <trkpt lat="48.40402" lon="-4.33371">
        <ele>44.3580322</ele>
        <time>2013-08-04T09:01:51Z</time>
      </trkpt>
      <trkpt lat="48.40401" lon="-4.33343">
        <ele>44.838623</ele>
        <time>2013-08-04T09:01:56Z</time>
      </trkpt>
      <trkpt lat="48.40398" lon="-4.33325">
        <ele>46.2806396</ele>
        <time>2013-08-04T09:02:01Z</time>
      </trkpt>
      <trkpt lat="48.40396" lon="-4.33315">
        <ele>50.1259766</ele>
        <time>2013-08-04T09:02:06Z</time>
      </trkpt>
      <trkpt lat="48.40391" lon="-4.33302">
        <ele>48.68396</ele>
        <time>2013-08-04T09:02:10Z</time>
      </trkpt>
      <trkpt lat="48.40383" lon="-4.33289">
        <ele>47.7225342</ele>
        <time>2013-08-04T09:02:15Z</time>
      </trkpt>
      <trkpt lat="48.40371" lon="-4.33271">
        <ele>48.68396</ele>
        <time>2013-08-04T09:02:21Z</time>
      </trkpt>
      <trkpt lat="48.40361" lon="-4.33255">
        <ele>50.6065674</ele>
        <time>2013-08-04T09:02:28Z</time>
      </trkpt>
      <trkpt lat="48.40359" lon="-4.33249">
        <ele>52.5291748</ele>
        <time>2013-08-04T09:02:31Z</time>
      </trkpt>
      <trkpt lat="48.40355" lon="-4.3324">
        <ele>56.3745117</ele>
        <time>2013-08-04T09:02:36Z</time>
      </trkpt>
      <trkpt lat="48.40349" lon="-4.3323">
        <ele>57.8165283</ele>
        <time>2013-08-04T09:02:40Z</time>
      </trkpt>
      <trkpt lat="48.40341" lon="-4.33218">
        <ele>59.7391357</ele>
        <time>2013-08-04T09:02:46Z</time>
      </trkpt>
      <trkpt lat="48.40337" lon="-4.33212">
        <ele>63.5843506</ele>
        <time>2013-08-04T09:02:50Z</time>
      </trkpt>
      <trkpt lat="48.40335" lon="-4.33201">
        <ele>60.7003174</ele>
        <time>2013-08-04T09:02:54Z</time>
      </trkpt>
      <trkpt lat="48.40332" lon="-4.33195">
        <ele>62.6229248</ele>
        <time>2013-08-04T09:02:58Z</time>
      </trkpt>
      <trkpt lat="48.40327" lon="-4.33173">
        <ele>63.1036377</ele>
        <time>2013-08-04T09:03:07Z</time>
      </trkpt>
      <trkpt lat="48.40322" lon="-4.33159">
        <ele>57.8165283</ele>
        <time>2013-08-04T09:03:12Z</time>
      </trkpt>
      <trkpt lat="48.4032" lon="-4.3314">
        <ele>59.7391357</ele>
        <time>2013-08-04T09:03:19Z</time>
      </trkpt>
      <trkpt lat="48.40319" lon="-4.33119">
        <ele>63.1036377</ele>
        <time>2013-08-04T09:03:27Z</time>
      </trkpt>
      <trkpt lat="48.40318" lon="-4.33101">
        <ele>67.9102783</ele>
        <time>2013-08-04T09:03:34Z</time>
      </trkpt>
      <trkpt lat="48.40316" lon="-4.33083">
        <ele>71.2749023</ele>
        <time>2013-08-04T09:03:42Z</time>
      </trkpt>
      <trkpt lat="48.40315" lon="-4.33071">
        <ele>75.1202393</ele>
        <time>2013-08-04T09:03:49Z</time>
      </trkpt>
      <trkpt lat="48.40319" lon="-4.33052">
        <ele>81.3687744</ele>
        <time>2013-08-04T09:03:57Z</time>
      </trkpt>
      <trkpt lat="48.40319" lon="-4.33038">
        <ele>83.7719727</ele>
        <time>2013-08-04T09:04:04Z</time>
      </trkpt>
      <trkpt lat="48.40319" lon="-4.3303">
        <ele>81.3687744</ele>
        <time>2013-08-04T09:04:08Z</time>
      </trkpt>
      <trkpt lat="48.4032" lon="-4.33014">
        <ele>82.810791</ele>
        <time>2013-08-04T09:04:17Z</time>
      </trkpt>
      <trkpt lat="48.40324" lon="-4.33003">
        <ele>83.2913818</ele>
        <time>2013-08-04T09:04:22Z</time>
      </trkpt>
      <trkpt lat="48.40326" lon="-4.32996">
        <ele>83.7719727</ele>
        <time>2013-08-04T09:04:25Z</time>
      </trkpt>
      <trkpt lat="48.40328" lon="-4.32987">
        <ele>85.2139893</ele>
        <time>2013-08-04T09:04:29Z</time>
      </trkpt>
      <trkpt lat="48.40331" lon="-4.32974">
        <ele>85.6945801</ele>
        <time>2013-08-04T09:04:35Z</time>
      </trkpt>
      <trkpt lat="48.40335" lon="-4.32962">
        <ele>86.175293</ele>
        <time>2013-08-04T09:04:41Z</time>
      </trkpt>
      <trkpt lat="48.4034" lon="-4.32944">
        <ele>84.7333984</ele>
        <time>2013-08-04T09:04:49Z</time>
      </trkpt>
      <trkpt lat="48.40345" lon="-4.32926">
        <ele>82.3300781</ele>
        <time>2013-08-04T09:04:57Z</time>
      </trkpt>
      <trkpt lat="48.40351" lon="-4.32911">
        <ele>81.8493652</ele>
        <time>2013-08-04T09:05:05Z</time>
      </trkpt>
      <trkpt lat="48.40359" lon="-4.32898">
        <ele>80.8881836</ele>
        <time>2013-08-04T09:05:12Z</time>
      </trkpt>
      <trkpt lat="48.40369" lon="-4.32883">
        <ele>81.3687744</ele>
        <time>2013-08-04T09:05:19Z</time>
      </trkpt>
      <trkpt lat="48.40375" lon="-4.32877">
        <ele>81.8493652</ele>
        <time>2013-08-04T09:05:25Z</time>
      </trkpt>
      <trkpt lat="48.40377" lon="-4.32877">
        <ele>82.3300781</ele>
        <time>2013-08-04T09:05:27Z</time>
      </trkpt>
      <trkpt lat="48.40378" lon="-4.32876">
        <ele>81.8493652</ele>
        <time>2013-08-04T09:05:30Z</time>
      </trkpt>
      <trkpt lat="48.40384" lon="-4.32878">
        <ele>78.9654541</ele>
        <time>2013-08-04T09:06:02Z</time>
      </trkpt>
      <trkpt lat="48.40385" lon="-4.32877">
        <ele>78.4847412</ele>
        <time>2013-08-04T09:06:03Z</time>
      </trkpt>
      <trkpt lat="48.40394" lon="-4.32869">
        <ele>78.0040283</ele>
        <time>2013-08-04T09:06:06Z</time>
      </trkpt>
      <trkpt lat="48.40419" lon="-4.32844">
        <ele>75.6008301</ele>
        <time>2013-08-04T09:06:14Z</time>
      </trkpt>
      <trkpt lat="48.40443" lon="-4.32823">
        <ele>72.7169189</ele>
        <time>2013-08-04T09:06:21Z</time>
      </trkpt>
      <trkpt lat="48.40463" lon="-4.32811">
        <ele>74.6395264</ele>
        <time>2013-08-04T09:06:26Z</time>
      </trkpt>
      <trkpt lat="48.40475" lon="-4.32804">
        <ele>74.1588135</ele>
        <time>2013-08-04T09:06:29Z</time>
      </trkpt>
      <trkpt lat="48.40495" lon="-4.32788">
        <ele>73.1976318</ele>
        <time>2013-08-04T09:06:34Z</time>
      </trkpt>
      <trkpt lat="48.40524" lon="-4.3277">
        <ele>72.7169189</ele>
        <time>2013-08-04T09:06:40Z</time>
      </trkpt>
      <trkpt lat="48.40539" lon="-4.3276">
        <ele>71.2749023</ele>
        <time>2013-08-04T09:06:43Z</time>
      </trkpt>
      <trkpt lat="48.40577" lon="-4.32735">
        <ele>72.7169189</ele>
        <time>2013-08-04T09:06:50Z</time>
      </trkpt>
      <trkpt lat="48.40608" lon="-4.32702">
        <ele>70.3134766</ele>
        <time>2013-08-04T09:06:57Z</time>
      </trkpt>
      <trkpt lat="48.4064" lon="-4.32667">
        <ele>71.2749023</ele>
        <time>2013-08-04T09:07:05Z</time>
      </trkpt>
      <trkpt lat="48.4067" lon="-4.32631">
        <ele>71.7554932</ele>
        <time>2013-08-04T09:07:13Z</time>
      </trkpt>
      <trkpt lat="48.407" lon="-4.32597">
        <ele>72.2362061</ele>
        <time>2013-08-04T09:07:22Z</time>
      </trkpt>
      <trkpt lat="48.40717" lon="-4.32578">
        <ele>71.7554932</ele>
        <time>2013-08-04T09:07:27Z</time>
      </trkpt>
      <trkpt lat="48.40739" lon="-4.32546">
        <ele>72.2362061</ele>
        <time>2013-08-04T09:07:34Z</time>
      </trkpt>
      <trkpt lat="48.40746" lon="-4.32525">
        <ele>72.7169189</ele>
        <time>2013-08-04T09:07:38Z</time>
      </trkpt>
      <trkpt lat="48.40747" lon="-4.32497">
        <ele>73.1976318</ele>
        <time>2013-08-04T09:07:44Z</time>
      </trkpt>
      <trkpt lat="48.40741" lon="-4.32485">
        <ele>73.6782227</ele>
        <time>2013-08-04T09:07:49Z</time>
      </trkpt>
      <trkpt lat="48.40739" lon="-4.32481">
        <ele>74.6395264</ele>
        <time>2013-08-04T09:07:51Z</time>
      </trkpt>
      <trkpt lat="48.40732" lon="-4.32468">
        <ele>71.7554932</ele>
        <time>2013-08-04T09:07:57Z</time>
      </trkpt>
      <trkpt lat="48.40731" lon="-4.32457">
        <ele>74.1588135</ele>
        <time>2013-08-04T09:08:01Z</time>
      </trkpt>
      <trkpt lat="48.40732" lon="-4.32444">
        <ele>76.5621338</ele>
        <time>2013-08-04T09:08:05Z</time>
      </trkpt>
      <trkpt lat="48.40735" lon="-4.32419">
        <ele>78.9654541</ele>
        <time>2013-08-04T09:08:12Z</time>
      </trkpt>
      <trkpt lat="48.40739" lon="-4.32396">
        <ele>82.810791</ele>
        <time>2013-08-04T09:08:19Z</time>
      </trkpt>
      <trkpt lat="48.40739" lon="-4.32374">
        <ele>84.7333984</ele>
        <time>2013-08-04T09:08:25Z</time>
      </trkpt>
      <trkpt lat="48.40738" lon="-4.32352">
        <ele>82.3300781</ele>
        <time>2013-08-04T09:08:31Z</time>
      </trkpt>
      <trkpt lat="48.40734" lon="-4.32322">
        <ele>78.4847412</ele>
        <time>2013-08-04T09:08:39Z</time>
      </trkpt>
      <trkpt lat="48.40732" lon="-4.32304">
        <ele>78.0040283</ele>
        <time>2013-08-04T09:08:44Z</time>
      </trkpt>
      <trkpt lat="48.4073" lon="-4.32279">
        <ele>81.8493652</ele>
        <time>2013-08-04T09:08:51Z</time>
      </trkpt>
      <trkpt lat="48.40731" lon="-4.32264">
        <ele>83.7719727</ele>
        <time>2013-08-04T09:08:55Z</time>
      </trkpt>
      <trkpt lat="48.4073" lon="-4.32246">
        <ele>84.7333984</ele>
        <time>2013-08-04T09:09:01Z</time>
      </trkpt>
      <trkpt lat="48.4073" lon="-4.32243">
        <ele>85.6945801</ele>
        <time>2013-08-04T09:09:02Z</time>
      </trkpt>
      <trkpt lat="48.40732" lon="-4.32234">
        <ele>89.0593262</ele>
        <time>2013-08-04T09:09:05Z</time>
      </trkpt>
      <trkpt lat="48.4073" lon="-4.32224">
        <ele>88.5787354</ele>
        <time>2013-08-04T09:09:09Z</time>
      </trkpt>
      <trkpt lat="48.40726" lon="-4.32205">
        <ele>87.6171875</ele>
        <time>2013-08-04T09:09:15Z</time>
      </trkpt>
      <trkpt lat="48.40721" lon="-4.32187">
        <ele>87.1365967</ele>
        <time>2013-08-04T09:09:20Z</time>
      </trkpt>
      <trkpt lat="48.40714" lon="-4.32159">
        <ele>85.6945801</ele>
        <time>2013-08-04T09:09:27Z</time>
      </trkpt>
      <trkpt lat="48.40712" lon="-4.32141">
        <ele>87.1365967</ele>
        <time>2013-08-04T09:09:33Z</time>
      </trkpt>
      <trkpt lat="48.40714" lon="-4.32118">
        <ele>93.8658447</ele>
        <time>2013-08-04T09:09:39Z</time>
      </trkpt>
      <trkpt lat="48.40715" lon="-4.32089">
        <ele>96.2692871</ele>
        <time>2013-08-04T09:09:47Z</time>
      </trkpt>
      <trkpt lat="48.40717" lon="-4.32067">
        <ele>100.114502</ele>
        <time>2013-08-04T09:09:53Z</time>
      </trkpt>
      <trkpt lat="48.40713" lon="-4.32041">
        <ele>94.3465576</ele>
        <time>2013-08-04T09:10:01Z</time>
      </trkpt>
      <trkpt lat="48.40711" lon="-4.32024">
        <ele>94.8271484</ele>
        <time>2013-08-04T09:10:07Z</time>
      </trkpt>
      <trkpt lat="48.40712" lon="-4.32007">
        <ele>96.7498779</ele>
        <time>2013-08-04T09:10:14Z</time>
      </trkpt>
      <trkpt lat="48.40711" lon="-4.31984">
        <ele>100.114502</ele>
        <time>2013-08-04T09:10:22Z</time>
      </trkpt>
      <trkpt lat="48.40709" lon="-4.31967">
        <ele>102.998291</ele>
        <time>2013-08-04T09:10:27Z</time>
      </trkpt>
      <trkpt lat="48.40711" lon="-4.3195">
        <ele>103.4790039</ele>
        <time>2013-08-04T09:10:32Z</time>
      </trkpt>
      <trkpt lat="48.40709" lon="-4.31931">
        <ele>102.5177002</ele>
        <time>2013-08-04T09:10:37Z</time>
      </trkpt>
      <trkpt lat="48.40709" lon="-4.31913">
        <ele>100.5950928</ele>
        <time>2013-08-04T09:10:42Z</time>
      </trkpt>
      <trkpt lat="48.40707" lon="-4.31879">
        <ele>99.6337891</ele>
        <time>2013-08-04T09:10:50Z</time>
      </trkpt>
      <trkpt lat="48.40706" lon="-4.31851">
        <ele>98.6724854</ele>
        <time>2013-08-04T09:10:58Z</time>
      </trkpt>
      <trkpt lat="48.40704" lon="-4.31833">
        <ele>99.6337891</ele>
        <time>2013-08-04T09:11:03Z</time>
      </trkpt>
      <trkpt lat="48.40703" lon="-4.31813">
        <ele>101.0756836</ele>
        <time>2013-08-04T09:11:08Z</time>
      </trkpt>
      <trkpt lat="48.40704" lon="-4.31798">
        <ele>103.4790039</ele>
        <time>2013-08-04T09:11:12Z</time>
      </trkpt>
      <trkpt lat="48.40703" lon="-4.31784">
        <ele>104.4404297</ele>
        <time>2013-08-04T09:11:16Z</time>
      </trkpt>
      <trkpt lat="48.40703" lon="-4.31772">
        <ele>104.4404297</ele>
        <time>2013-08-04T09:11:20Z</time>
      </trkpt>
      <trkpt lat="48.407" lon="-4.31758">
        <ele>104.4404297</ele>
        <time>2013-08-04T09:11:25Z</time>
      </trkpt>
      <trkpt lat="48.40699" lon="-4.31736">
        <ele>106.8436279</ele>
        <time>2013-08-04T09:11:30Z</time>
      </trkpt>
      <trkpt lat="48.40697" lon="-4.31717">
        <ele>108.2856445</ele>
        <time>2013-08-04T09:11:35Z</time>
      </trkpt>
      <trkpt lat="48.40696" lon="-4.31703">
        <ele>108.2856445</ele>
        <time>2013-08-04T09:11:39Z</time>
      </trkpt>
      <trkpt lat="48.40695" lon="-4.31691">
        <ele>108.2856445</ele>
        <time>2013-08-04T09:11:42Z</time>
      </trkpt>
      <trkpt lat="48.40693" lon="-4.3168">
        <ele>106.3630371</ele>
        <time>2013-08-04T09:11:48Z</time>
      </trkpt>
      <trkpt lat="48.40692" lon="-4.31665">
        <ele>107.3243408</ele>
        <time>2013-08-04T09:11:52Z</time>
      </trkpt>
      <trkpt lat="48.40693" lon="-4.31655">
        <ele>107.8050537</ele>
        <time>2013-08-04T09:11:54Z</time>
      </trkpt>
      <trkpt lat="48.40697" lon="-4.31619">
        <ele>111.6502686</ele>
        <time>2013-08-04T09:12:01Z</time>
      </trkpt>
      <trkpt lat="48.40696" lon="-4.31596">
        <ele>111.1695557</ele>
        <time>2013-08-04T09:12:06Z</time>
      </trkpt>
      <trkpt lat="48.407" lon="-4.31576">
        <ele>112.6115723</ele>
        <time>2013-08-04T09:12:12Z</time>
      </trkpt>
      <trkpt lat="48.407" lon="-4.31572">
        <ele>112.6115723</ele>
        <time>2013-08-04T09:12:13Z</time>
      </trkpt>
      <trkpt lat="48.40704" lon="-4.3155">
        <ele>115.9761963</ele>
        <time>2013-08-04T09:12:20Z</time>
      </trkpt>
      <trkpt lat="48.40707" lon="-4.31538">
        <ele>116.9375</ele>
        <time>2013-08-04T09:12:24Z</time>
      </trkpt>
      <trkpt lat="48.4071" lon="-4.31524">
        <ele>116.4567871</ele>
        <time>2013-08-04T09:12:30Z</time>
      </trkpt>
      <trkpt lat="48.40711" lon="-4.31522">
        <ele>116.9375</ele>
        <time>2013-08-04T09:12:31Z</time>
      </trkpt>
      <trkpt lat="48.40711" lon="-4.315">
        <ele>118.3793945</ele>
        <time>2013-08-04T09:12:38Z</time>
      </trkpt>
      <trkpt lat="48.4071" lon="-4.31487">
        <ele>116.4567871</ele>
        <time>2013-08-04T09:12:43Z</time>
      </trkpt>
      <trkpt lat="48.4071" lon="-4.31476">
        <ele>117.8988037</ele>
        <time>2013-08-04T09:12:48Z</time>
      </trkpt>
      <trkpt lat="48.40708" lon="-4.31462">
        <ele>118.8601074</ele>
        <time>2013-08-04T09:12:53Z</time>
      </trkpt>
      <trkpt lat="48.40708" lon="-4.31457">
        <ele>119.3408203</ele>
        <time>2013-08-04T09:12:54Z</time>
      </trkpt>
      <trkpt lat="48.4071" lon="-4.31443">
        <ele>122.2247314</ele>
        <time>2013-08-04T09:12:58Z</time>
      </trkpt>
      <trkpt lat="48.40712" lon="-4.31421">
        <ele>122.7054443</ele>
        <time>2013-08-04T09:13:06Z</time>
      </trkpt>
      <trkpt lat="48.40712" lon="-4.31418">
        <ele>122.7054443</ele>
        <time>2013-08-04T09:13:07Z</time>
      </trkpt>
      <trkpt lat="48.40717" lon="-4.31396">
        <ele>124.6280518</ele>
        <time>2013-08-04T09:13:15Z</time>
      </trkpt>
      <trkpt lat="48.40719" lon="-4.31384">
        <ele>125.5893555</ele>
        <time>2013-08-04T09:13:19Z</time>
      </trkpt>
      <trkpt lat="48.4072" lon="-4.31374">
        <ele>125.5893555</ele>
        <time>2013-08-04T09:13:23Z</time>
      </trkpt>
      <trkpt lat="48.40725" lon="-4.31355">
        <ele>126.5506592</ele>
        <time>2013-08-04T09:13:30Z</time>
      </trkpt>
      <trkpt lat="48.40726" lon="-4.31354">
        <ele>127.5119629</ele>
        <time>2013-08-04T09:13:31Z</time>
      </trkpt>
      <trkpt lat="48.40729" lon="-4.31331">
        <ele>127.9925537</ele>
        <time>2013-08-04T09:13:39Z</time>
      </trkpt>
      <trkpt lat="48.40732" lon="-4.31319">
        <ele>127.9925537</ele>
        <time>2013-08-04T09:13:44Z</time>
      </trkpt>
      <trkpt lat="48.40732" lon="-4.31315">
        <ele>127.0313721</ele>
        <time>2013-08-04T09:13:46Z</time>
      </trkpt>
      <trkpt lat="48.40736" lon="-4.31304">
        <ele>128.9541016</ele>
        <time>2013-08-04T09:13:51Z</time>
      </trkpt>
      <trkpt lat="48.4074" lon="-4.31283">
        <ele>133.2799072</ele>
        <time>2013-08-04T09:13:58Z</time>
      </trkpt>
      <trkpt lat="48.40743" lon="-4.31269">
        <ele>136.1639404</ele>
        <time>2013-08-04T09:14:03Z</time>
      </trkpt>
      <trkpt lat="48.40742" lon="-4.31257">
        <ele>133.2799072</ele>
        <time>2013-08-04T09:14:09Z</time>
      </trkpt>
      <trkpt lat="48.40739" lon="-4.3124">
        <ele>133.760498</ele>
        <time>2013-08-04T09:14:16Z</time>
      </trkpt>
      <trkpt lat="48.40739" lon="-4.31228">
        <ele>133.2799072</ele>
        <time>2013-08-04T09:14:23Z</time>
      </trkpt>
      <trkpt lat="48.40741" lon="-4.31213">
        <ele>133.760498</ele>
        <time>2013-08-04T09:14:30Z</time>
      </trkpt>
      <trkpt lat="48.40741" lon="-4.31201">
        <ele>135.2025146</ele>
        <time>2013-08-04T09:14:35Z</time>
      </trkpt>
      <trkpt lat="48.40742" lon="-4.31178">
        <ele>137.1252441</ele>
        <time>2013-08-04T09:14:43Z</time>
      </trkpt>
      <trkpt lat="48.40743" lon="-4.31155">
        <ele>139.0478516</ele>
        <time>2013-08-04T09:14:51Z</time>
      </trkpt>
      <trkpt lat="48.40746" lon="-4.3114">
        <ele>138.5672607</ele>
        <time>2013-08-04T09:14:58Z</time>
      </trkpt>
      <trkpt lat="48.40747" lon="-4.31124">
        <ele>140.4898682</ele>
        <time>2013-08-04T09:15:04Z</time>
      </trkpt>
      <trkpt lat="48.4075" lon="-4.31102">
        <ele>142.4124756</ele>
        <time>2013-08-04T09:15:12Z</time>
      </trkpt>
      <trkpt lat="48.40749" lon="-4.3109">
        <ele>140.4898682</ele>
        <time>2013-08-04T09:15:17Z</time>
      </trkpt>
      <trkpt lat="48.40749" lon="-4.31078">
        <ele>141.4510498</ele>
        <time>2013-08-04T09:15:23Z</time>
      </trkpt>
      <trkpt lat="48.40752" lon="-4.31058">
        <ele>144.8157959</ele>
        <time>2013-08-04T09:15:30Z</time>
      </trkpt>
      <trkpt lat="48.40755" lon="-4.31037">
        <ele>147.699707</ele>
        <time>2013-08-04T09:15:38Z</time>
      </trkpt>
      <trkpt lat="48.40755" lon="-4.31017">
        <ele>145.7770996</ele>
        <time>2013-08-04T09:15:47Z</time>
      </trkpt>
      <trkpt lat="48.40755" lon="-4.31012">
        <ele>145.7770996</ele>
        <time>2013-08-04T09:15:49Z</time>
      </trkpt>
      <trkpt lat="48.40757" lon="-4.30998">
        <ele>149.6223145</ele>
        <time>2013-08-04T09:15:57Z</time>
      </trkpt>
      <trkpt lat="48.40757" lon="-4.30981">
        <ele>149.6223145</ele>
        <time>2013-08-04T09:16:05Z</time>
      </trkpt>
      <trkpt lat="48.40755" lon="-4.30972">
        <ele>149.1416016</ele>
        <time>2013-08-04T09:16:11Z</time>
      </trkpt>
      <trkpt lat="48.40751" lon="-4.30966">
        <ele>149.6223145</ele>
        <time>2013-08-04T09:16:18Z</time>
      </trkpt>
      <trkpt lat="48.40744" lon="-4.30957">
        <ele>148.6610107</ele>
        <time>2013-08-04T09:16:27Z</time>
      </trkpt>
      <trkpt lat="48.40735" lon="-4.3095">
        <ele>147.2189941</ele>
        <time>2013-08-04T09:16:36Z</time>
      </trkpt>
      <trkpt lat="48.40727" lon="-4.30944">
        <ele>148.1804199</ele>
        <time>2013-08-04T09:16:44Z</time>
      </trkpt>
      <trkpt lat="48.40722" lon="-4.30943">
        <ele>148.1804199</ele>
        <time>2013-08-04T09:16:48Z</time>
      </trkpt>
      <trkpt lat="48.40719" lon="-4.30946">
        <ele>149.1416016</ele>
        <time>2013-08-04T09:16:54Z</time>
      </trkpt>
      <trkpt lat="48.40714" lon="-4.30942">
        <ele>143.8543701</ele>
        <time>2013-08-04T09:19:11Z</time>
      </trkpt>
      <trkpt lat="48.40712" lon="-4.30944">
        <ele>143.8543701</ele>
        <time>2013-08-04T09:19:12Z</time>
      </trkpt>
      <trkpt lat="48.40701" lon="-4.30964">
        <ele>143.8543701</ele>
        <time>2013-08-04T09:19:18Z</time>
      </trkpt>
      <trkpt lat="48.40681" lon="-4.30991">
        <ele>144.3352051</ele>
        <time>2013-08-04T09:19:27Z</time>
      </trkpt>
      <trkpt lat="48.40658" lon="-4.31014">
        <ele>144.8157959</ele>
        <time>2013-08-04T09:19:35Z</time>
      </trkpt>
      <trkpt lat="48.40646" lon="-4.31027">
        <ele>144.8157959</ele>
        <time>2013-08-04T09:19:39Z</time>
      </trkpt>
      <trkpt lat="48.40626" lon="-4.31046">
        <ele>144.8157959</ele>
        <time>2013-08-04T09:19:46Z</time>
      </trkpt>
      <trkpt lat="48.406" lon="-4.3107">
        <ele>146.7384033</ele>
        <time>2013-08-04T09:19:54Z</time>
      </trkpt>
      <trkpt lat="48.40574" lon="-4.31098">
        <ele>145.2963867</ele>
        <time>2013-08-04T09:20:03Z</time>
      </trkpt>
      <trkpt lat="48.4055" lon="-4.31124">
        <ele>144.3352051</ele>
        <time>2013-08-04T09:20:11Z</time>
      </trkpt>
      <trkpt lat="48.40525" lon="-4.31157">
        <ele>147.2189941</ele>
        <time>2013-08-04T09:20:19Z</time>
      </trkpt>
      <trkpt lat="48.40495" lon="-4.31207">
        <ele>149.1416016</ele>
        <time>2013-08-04T09:20:30Z</time>
      </trkpt>
      <trkpt lat="48.40474" lon="-4.31254">
        <ele>152.0257568</ele>
        <time>2013-08-04T09:20:40Z</time>
      </trkpt>
      <trkpt lat="48.40461" lon="-4.3129">
        <ele>154.9095459</ele>
        <time>2013-08-04T09:20:48Z</time>
      </trkpt>
      <trkpt lat="48.40448" lon="-4.3133">
        <ele>159.2354736</ele>
        <time>2013-08-04T09:20:56Z</time>
      </trkpt>
      <trkpt lat="48.4044" lon="-4.31367">
        <ele>159.7161865</ele>
        <time>2013-08-04T09:21:04Z</time>
      </trkpt>
      <trkpt lat="48.40432" lon="-4.31399">
        <ele>159.7161865</ele>
        <time>2013-08-04T09:21:12Z</time>
      </trkpt>
      <trkpt lat="48.40422" lon="-4.31432">
        <ele>159.2354736</ele>
        <time>2013-08-04T09:21:21Z</time>
      </trkpt>
      <trkpt lat="48.4041" lon="-4.31464">
        <ele>156.8321533</ele>
        <time>2013-08-04T09:21:30Z</time>
      </trkpt>
      <trkpt lat="48.40396" lon="-4.31501">
        <ele>156.8321533</ele>
        <time>2013-08-04T09:21:41Z</time>
      </trkpt>
      <trkpt lat="48.40385" lon="-4.31529">
        <ele>155.3902588</ele>
        <time>2013-08-04T09:21:50Z</time>
      </trkpt>
      <trkpt lat="48.4038" lon="-4.31544">
        <ele>155.3902588</ele>
        <time>2013-08-04T09:21:55Z</time>
      </trkpt>
      <trkpt lat="48.4037" lon="-4.31567">
        <ele>156.8321533</ele>
        <time>2013-08-04T09:22:02Z</time>
      </trkpt>
      <trkpt lat="48.40354" lon="-4.31609">
        <ele>156.8321533</ele>
        <time>2013-08-04T09:22:11Z</time>
      </trkpt>
      <trkpt lat="48.40342" lon="-4.31641">
        <ele>155.3902588</ele>
        <time>2013-08-04T09:22:19Z</time>
      </trkpt>
      <trkpt lat="48.40336" lon="-4.31662">
        <ele>155.8709717</ele>
        <time>2013-08-04T09:22:24Z</time>
      </trkpt>
      <trkpt lat="48.40326" lon="-4.31685">
        <ele>157.7935791</ele>
        <time>2013-08-04T09:22:30Z</time>
      </trkpt>
      <trkpt lat="48.40316" lon="-4.31705">
        <ele>159.2354736</ele>
        <time>2013-08-04T09:22:36Z</time>
      </trkpt>
      <trkpt lat="48.40307" lon="-4.31734">
        <ele>157.3128662</ele>
        <time>2013-08-04T09:22:43Z</time>
      </trkpt>
      <trkpt lat="48.40292" lon="-4.3177">
        <ele>159.2354736</ele>
        <time>2013-08-04T09:22:51Z</time>
      </trkpt>
      <trkpt lat="48.40288" lon="-4.31784">
        <ele>159.2354736</ele>
        <time>2013-08-04T09:22:57Z</time>
      </trkpt>
      <trkpt lat="48.40279" lon="-4.31795">
        <ele>160.1968994</ele>
        <time>2013-08-04T09:23:03Z</time>
      </trkpt>
      <trkpt lat="48.40268" lon="-4.31818">
        <ele>160.6774902</ele>
        <time>2013-08-04T09:23:07Z</time>
      </trkpt>
      <trkpt lat="48.40253" lon="-4.31851">
        <ele>160.6774902</ele>
        <time>2013-08-04T09:23:12Z</time>
      </trkpt>
      <trkpt lat="48.40245" lon="-4.31869">
        <ele>160.1968994</ele>
        <time>2013-08-04T09:23:15Z</time>
      </trkpt>
      <trkpt lat="48.40228" lon="-4.3191">
        <ele>159.2354736</ele>
        <time>2013-08-04T09:23:22Z</time>
      </trkpt>
      <trkpt lat="48.40205" lon="-4.31963">
        <ele>158.2741699</ele>
        <time>2013-08-04T09:23:31Z</time>
      </trkpt>
      <trkpt lat="48.40185" lon="-4.32014">
        <ele>157.7935791</ele>
        <time>2013-08-04T09:23:38Z</time>
      </trkpt>
      <trkpt lat="48.40162" lon="-4.32066">
        <ele>157.3128662</ele>
        <time>2013-08-04T09:23:45Z</time>
      </trkpt>
      <trkpt lat="48.40138" lon="-4.32127">
        <ele>156.8321533</ele>
        <time>2013-08-04T09:23:53Z</time>
      </trkpt>
      <trkpt lat="48.40119" lon="-4.32182">
        <ele>156.3515625</ele>
        <time>2013-08-04T09:24:00Z</time>
      </trkpt>
      <trkpt lat="48.40088" lon="-4.32267">
        <ele>154.9095459</ele>
        <time>2013-08-04T09:24:11Z</time>
      </trkpt>
      <trkpt lat="48.40076" lon="-4.32298">
        <ele>154.4289551</ele>
        <time>2013-08-04T09:24:15Z</time>
      </trkpt>
      <trkpt lat="48.40049" lon="-4.32369">
        <ele>152.9869385</ele>
        <time>2013-08-04T09:24:24Z</time>
      </trkpt>
      <trkpt lat="48.40024" lon="-4.32425">
        <ele>150.5836182</ele>
        <time>2013-08-04T09:24:31Z</time>
      </trkpt>
      <trkpt lat="48.39992" lon="-4.32483">
        <ele>149.6223145</ele>
        <time>2013-08-04T09:24:39Z</time>
      </trkpt>
      <trkpt lat="48.39968" lon="-4.32519">
        <ele>150.5836182</ele>
        <time>2013-08-04T09:24:45Z</time>
      </trkpt>
      <trkpt lat="48.39939" lon="-4.32556">
        <ele>151.5449219</ele>
        <time>2013-08-04T09:24:53Z</time>
      </trkpt>
      <trkpt lat="48.3991" lon="-4.32582">
        <ele>153.4676514</ele>
        <time>2013-08-04T09:25:00Z</time>
      </trkpt>
      <trkpt lat="48.39894" lon="-4.32595">
        <ele>154.4289551</ele>
        <time>2013-08-04T09:25:04Z</time>
      </trkpt>
      <trkpt lat="48.39879" lon="-4.32607">
        <ele>155.3902588</ele>
        <time>2013-08-04T09:25:08Z</time>
      </trkpt>
      <trkpt lat="48.39872" lon="-4.32613">
        <ele>156.3515625</ele>
        <time>2013-08-04T09:25:10Z</time>
      </trkpt>
      <trkpt lat="48.39865" lon="-4.32617">
        <ele>156.8321533</ele>
        <time>2013-08-04T09:25:12Z</time>
      </trkpt>
      <trkpt lat="48.3983" lon="-4.32643">
        <ele>159.7161865</ele>
        <time>2013-08-04T09:25:23Z</time>
      </trkpt>
      <trkpt lat="48.39807" lon="-4.32661">
        <ele>160.6774902</ele>
        <time>2013-08-04T09:25:32Z</time>
      </trkpt>
      <trkpt lat="48.39788" lon="-4.32677">
        <ele>161.638916</ele>
        <time>2013-08-04T09:25:39Z</time>
      </trkpt>
      <trkpt lat="48.39765" lon="-4.32696">
        <ele>162.1195068</ele>
        <time>2013-08-04T09:25:47Z</time>
      </trkpt>
      <trkpt lat="48.3974" lon="-4.3272">
        <ele>162.1195068</ele>
        <time>2013-08-04T09:25:55Z</time>
      </trkpt>
      <trkpt lat="48.39717" lon="-4.3275">
        <ele>160.6774902</ele>
        <time>2013-08-04T09:26:03Z</time>
      </trkpt>
      <trkpt lat="48.397" lon="-4.32774">
        <ele>160.1968994</ele>
        <time>2013-08-04T09:26:11Z</time>
      </trkpt>
      <trkpt lat="48.39683" lon="-4.32802">
        <ele>159.7161865</ele>
        <time>2013-08-04T09:26:20Z</time>
      </trkpt>
      <trkpt lat="48.39671" lon="-4.3282">
        <ele>159.7161865</ele>
        <time>2013-08-04T09:26:26Z</time>
      </trkpt>
      <trkpt lat="48.39663" lon="-4.32836">
        <ele>159.2354736</ele>
        <time>2013-08-04T09:26:31Z</time>
      </trkpt>
      <trkpt lat="48.39651" lon="-4.32855">
        <ele>158.2741699</ele>
        <time>2013-08-04T09:26:37Z</time>
      </trkpt>
      <trkpt lat="48.39633" lon="-4.32887">
        <ele>158.7547607</ele>
        <time>2013-08-04T09:26:45Z</time>
      </trkpt>
      <trkpt lat="48.39616" lon="-4.32919">
        <ele>158.7547607</ele>
        <time>2013-08-04T09:26:53Z</time>
      </trkpt>
      <trkpt lat="48.39594" lon="-4.32957">
        <ele>159.7161865</ele>
        <time>2013-08-04T09:27:02Z</time>
      </trkpt>
      <trkpt lat="48.39582" lon="-4.32977">
        <ele>160.1968994</ele>
        <time>2013-08-04T09:27:08Z</time>
      </trkpt>
      <trkpt lat="48.39573" lon="-4.32993">
        <ele>159.7161865</ele>
        <time>2013-08-04T09:27:14Z</time>
      </trkpt>
      <trkpt lat="48.39562" lon="-4.33015">
        <ele>159.2354736</ele>
        <time>2013-08-04T09:27:20Z</time>
      </trkpt>
      <trkpt lat="48.39545" lon="-4.33046">
        <ele>159.2354736</ele>
        <time>2013-08-04T09:27:27Z</time>
      </trkpt>
      <trkpt lat="48.39526" lon="-4.33082">
        <ele>159.7161865</ele>
        <time>2013-08-04T09:27:35Z</time>
      </trkpt>
      <trkpt lat="48.39514" lon="-4.3311">
        <ele>159.7161865</ele>
        <time>2013-08-04T09:27:42Z</time>
      </trkpt>
      <trkpt lat="48.39507" lon="-4.33128">
        <ele>159.7161865</ele>
        <time>2013-08-04T09:27:47Z</time>
      </trkpt>
      <trkpt lat="48.39493" lon="-4.33161">
        <ele>157.7935791</ele>
        <time>2013-08-04T09:27:55Z</time>
      </trkpt>
      <trkpt lat="48.39479" lon="-4.33197">
        <ele>156.3515625</ele>
        <time>2013-08-04T09:28:02Z</time>
      </trkpt>
      <trkpt lat="48.39459" lon="-4.33255">
        <ele>155.3902588</ele>
        <time>2013-08-04T09:28:13Z</time>
      </trkpt>
      <trkpt lat="48.39447" lon="-4.33295">
        <ele>153.4676514</ele>
        <time>2013-08-04T09:28:20Z</time>
      </trkpt>
      <trkpt lat="48.39436" lon="-4.3333">
        <ele>154.9095459</ele>
        <time>2013-08-04T09:28:25Z</time>
      </trkpt>
      <trkpt lat="48.39422" lon="-4.33379">
        <ele>154.4289551</ele>
        <time>2013-08-04T09:28:32Z</time>
      </trkpt>
      <trkpt lat="48.39413" lon="-4.33405">
        <ele>153.4676514</ele>
        <time>2013-08-04T09:28:36Z</time>
      </trkpt>
      <trkpt lat="48.39405" lon="-4.33431">
        <ele>149.6223145</ele>
        <time>2013-08-04T09:28:40Z</time>
      </trkpt>
      <trkpt lat="48.39395" lon="-4.33462">
        <ele>146.7384033</ele>
        <time>2013-08-04T09:28:44Z</time>
      </trkpt>
      <trkpt lat="48.39369" lon="-4.33542">
        <ele>144.3352051</ele>
        <time>2013-08-04T09:28:54Z</time>
      </trkpt>
      <trkpt lat="48.39346" lon="-4.33597">
        <ele>144.8157959</ele>
        <time>2013-08-04T09:29:01Z</time>
      </trkpt>
      <trkpt lat="48.39316" lon="-4.33652">
        <ele>144.8157959</ele>
        <time>2013-08-04T09:29:09Z</time>
      </trkpt>
      <trkpt lat="48.3929" lon="-4.33693">
        <ele>144.8157959</ele>
        <time>2013-08-04T09:29:15Z</time>
      </trkpt>
      <trkpt lat="48.39251" lon="-4.3376">
        <ele>141.9317627</ele>
        <time>2013-08-04T09:29:24Z</time>
      </trkpt>
      <trkpt lat="48.39211" lon="-4.33838">
        <ele>137.1252441</ele>
        <time>2013-08-04T09:29:33Z</time>
      </trkpt>
      <trkpt lat="48.39184" lon="-4.3391">
        <ele>134.2412109</ele>
        <time>2013-08-04T09:29:40Z</time>
      </trkpt>
      <trkpt lat="48.3916" lon="-4.33998">
        <ele>132.3186035</ele>
        <time>2013-08-04T09:29:48Z</time>
      </trkpt>
      <trkpt lat="48.3914" lon="-4.3407">
        <ele>129.9152832</ele>
        <time>2013-08-04T09:29:55Z</time>
      </trkpt>
      <trkpt lat="48.39114" lon="-4.34145">
        <ele>125.1087646</ele>
        <time>2013-08-04T09:30:03Z</time>
      </trkpt>
      <trkpt lat="48.39081" lon="-4.34217">
        <ele>122.7054443</ele>
        <time>2013-08-04T09:30:11Z</time>
      </trkpt>
      <trkpt lat="48.39035" lon="-4.34307">
        <ele>120.7828369</ele>
        <time>2013-08-04T09:30:21Z</time>
      </trkpt>
      <trkpt lat="48.39013" lon="-4.34353">
        <ele>117.4182129</ele>
        <time>2013-08-04T09:30:26Z</time>
      </trkpt>
      <trkpt lat="48.38999" lon="-4.34379">
        <ele>115.9761963</ele>
        <time>2013-08-04T09:30:29Z</time>
      </trkpt>
      <trkpt lat="48.38958" lon="-4.34461">
        <ele>111.6502686</ele>
        <time>2013-08-04T09:30:39Z</time>
      </trkpt>
      <trkpt lat="48.38933" lon="-4.34512">
        <ele>111.1695557</ele>
        <time>2013-08-04T09:30:45Z</time>
      </trkpt>
      <trkpt lat="48.38913" lon="-4.34551">
        <ele>110.6888428</ele>
        <time>2013-08-04T09:30:49Z</time>
      </trkpt>
      <trkpt lat="48.38896" lon="-4.34587">
        <ele>110.208252</ele>
        <time>2013-08-04T09:30:53Z</time>
      </trkpt>
      <trkpt lat="48.38868" lon="-4.34652">
        <ele>108.2856445</ele>
        <time>2013-08-04T09:31:01Z</time>
      </trkpt>
      <trkpt lat="48.38845" lon="-4.34708">
        <ele>108.2856445</ele>
        <time>2013-08-04T09:31:08Z</time>
      </trkpt>
      <trkpt lat="48.38821" lon="-4.34781">
        <ele>107.8050537</ele>
        <time>2013-08-04T09:31:17Z</time>
      </trkpt>
      <trkpt lat="48.38799" lon="-4.34857">
        <ele>109.2469482</ele>
        <time>2013-08-04T09:31:27Z</time>
      </trkpt>
      <trkpt lat="48.3879" lon="-4.34883">
        <ele>109.7276611</ele>
        <time>2013-08-04T09:31:31Z</time>
      </trkpt>
      <trkpt lat="48.38775" lon="-4.34936">
        <ele>109.2469482</ele>
        <time>2013-08-04T09:31:39Z</time>
      </trkpt>
      <trkpt lat="48.38758" lon="-4.34994">
        <ele>109.2469482</ele>
        <time>2013-08-04T09:31:47Z</time>
      </trkpt>
      <trkpt lat="48.38739" lon="-4.35055">
        <ele>108.2856445</ele>
        <time>2013-08-04T09:31:55Z</time>
      </trkpt>
      <trkpt lat="48.38711" lon="-4.35111">
        <ele>109.7276611</ele>
        <time>2013-08-04T09:32:02Z</time>
      </trkpt>
      <trkpt lat="48.38688" lon="-4.35145">
        <ele>111.1695557</ele>
        <time>2013-08-04T09:32:07Z</time>
      </trkpt>
      <trkpt lat="48.38665" lon="-4.35182">
        <ele>112.6115723</ele>
        <time>2013-08-04T09:32:13Z</time>
      </trkpt>
      <trkpt lat="48.38652" lon="-4.35206">
        <ele>113.0922852</ele>
        <time>2013-08-04T09:32:17Z</time>
      </trkpt>
      <trkpt lat="48.38631" lon="-4.35237">
        <ele>113.572998</ele>
        <time>2013-08-04T09:32:23Z</time>
      </trkpt>
      <trkpt lat="48.38599" lon="-4.35278">
        <ele>115.4956055</ele>
        <time>2013-08-04T09:32:32Z</time>
      </trkpt>
      <trkpt lat="48.38572" lon="-4.35317">
        <ele>115.4956055</ele>
        <time>2013-08-04T09:32:41Z</time>
      </trkpt>
      <trkpt lat="48.38548" lon="-4.35358">
        <ele>114.0535889</ele>
        <time>2013-08-04T09:32:50Z</time>
      </trkpt>
      <trkpt lat="48.38519" lon="-4.354">
        <ele>113.0922852</ele>
        <time>2013-08-04T09:32:59Z</time>
      </trkpt>
      <trkpt lat="48.38494" lon="-4.35427">
        <ele>114.0535889</ele>
        <time>2013-08-04T09:33:06Z</time>
      </trkpt>
      <trkpt lat="48.38463" lon="-4.3545">
        <ele>115.9761963</ele>
        <time>2013-08-04T09:33:14Z</time>
      </trkpt>
      <trkpt lat="48.38445" lon="-4.35463">
        <ele>117.4182129</ele>
        <time>2013-08-04T09:33:20Z</time>
      </trkpt>
      <trkpt lat="48.38427" lon="-4.35473">
        <ele>116.9375</ele>
        <time>2013-08-04T09:33:27Z</time>
      </trkpt>
      <trkpt lat="48.3842" lon="-4.35478">
        <ele>117.8988037</ele>
        <time>2013-08-04T09:33:30Z</time>
      </trkpt>
      <trkpt lat="48.38417" lon="-4.35473">
        <ele>117.8988037</ele>
        <time>2013-08-04T09:33:35Z</time>
      </trkpt>
      <trkpt lat="48.38415" lon="-4.35467">
        <ele>119.8214111</ele>
        <time>2013-08-04T09:33:39Z</time>
      </trkpt>
      <trkpt lat="48.38419" lon="-4.35466">
        <ele>121.2635498</ele>
        <time>2013-08-04T09:33:42Z</time>
      </trkpt>
      <trkpt lat="48.38422" lon="-4.35468">
        <ele>121.7441406</ele>
        <time>2013-08-04T09:33:45Z</time>
      </trkpt>
      <trkpt lat="48.38424" lon="-4.35478">
        <ele>121.7441406</ele>
        <time>2013-08-04T09:33:50Z</time>
      </trkpt>
      <trkpt lat="48.38428" lon="-4.35476">
        <ele>121.7441406</ele>
        <time>2013-08-04T09:33:55Z</time>
      </trkpt>
      <trkpt lat="48.38436" lon="-4.35466">
        <ele>121.2635498</ele>
        <time>2013-08-04T09:34:01Z</time>
      </trkpt>
      <trkpt lat="48.38439" lon="-4.35462">
        <ele>121.2635498</ele>
        <time>2013-08-04T09:34:03Z</time>
      </trkpt>
      <trkpt lat="48.38439" lon="-4.3546">
        <ele>121.2635498</ele>
        <time>2013-08-04T09:34:06Z</time>
      </trkpt>
      <trkpt lat="48.38449" lon="-4.35466">
        <ele>109.2469482</ele>
        <time>2013-08-04T09:35:12Z</time>
      </trkpt>
      <trkpt lat="48.3845" lon="-4.35466">
        <ele>109.7276611</ele>
        <time>2013-08-04T09:35:13Z</time>
      </trkpt>
      <trkpt lat="48.38454" lon="-4.35469">
        <ele>110.6888428</ele>
        <time>2013-08-04T09:35:17Z</time>
      </trkpt>
      <trkpt lat="48.38455" lon="-4.35458">
        <ele>110.6888428</ele>
        <time>2013-08-04T09:35:50Z</time>
      </trkpt>
      <trkpt lat="48.38448" lon="-4.35461">
        <ele>109.7276611</ele>
        <time>2013-08-04T09:35:53Z</time>
      </trkpt>
      <trkpt lat="48.38447" lon="-4.35462">
        <ele>109.7276611</ele>
        <time>2013-08-04T09:35:54Z</time>
      </trkpt>
      <trkpt lat="48.38442" lon="-4.35465">
        <ele>110.6888428</ele>
        <time>2013-08-04T09:36:00Z</time>
      </trkpt>
      <trkpt lat="48.38445" lon="-4.35468">
        <ele>111.6502686</ele>
        <time>2013-08-04T09:36:14Z</time>
      </trkpt>
      <trkpt lat="48.38453" lon="-4.35458">
        <ele>112.1309814</ele>
        <time>2013-08-04T09:36:17Z</time>
      </trkpt>
      <trkpt lat="48.38473" lon="-4.35436">
        <ele>112.6115723</ele>
        <time>2013-08-04T09:36:22Z</time>
      </trkpt>
      <trkpt lat="48.3849" lon="-4.35418">
        <ele>113.572998</ele>
        <time>2013-08-04T09:36:26Z</time>
      </trkpt>
      <trkpt lat="48.38513" lon="-4.35391">
        <ele>114.5341797</ele>
        <time>2013-08-04T09:36:32Z</time>
      </trkpt>
      <trkpt lat="48.38539" lon="-4.35349">
        <ele>115.9761963</ele>
        <time>2013-08-04T09:36:40Z</time>
      </trkpt>
      <trkpt lat="48.38559" lon="-4.35315">
        <ele>116.4567871</ele>
        <time>2013-08-04T09:36:46Z</time>
      </trkpt>
      <trkpt lat="48.38583" lon="-4.35279">
        <ele>117.4182129</ele>
        <time>2013-08-04T09:36:53Z</time>
      </trkpt>
      <trkpt lat="48.38613" lon="-4.35235">
        <ele>117.8988037</ele>
        <time>2013-08-04T09:37:01Z</time>
      </trkpt>
      <trkpt lat="48.38642" lon="-4.35194">
        <ele>116.9375</ele>
        <time>2013-08-04T09:37:08Z</time>
      </trkpt>
      <trkpt lat="48.3867" lon="-4.35146">
        <ele>116.4567871</ele>
        <time>2013-08-04T09:37:15Z</time>
      </trkpt>
      <trkpt lat="48.38702" lon="-4.35091">
        <ele>116.4567871</ele>
        <time>2013-08-04T09:37:23Z</time>
      </trkpt>
      <trkpt lat="48.38716" lon="-4.3506">
        <ele>116.9375</ele>
        <time>2013-08-04T09:37:27Z</time>
      </trkpt>
      <trkpt lat="48.3873" lon="-4.35009">
        <ele>116.9375</ele>
        <time>2013-08-04T09:37:34Z</time>
      </trkpt>
      <trkpt lat="48.38734" lon="-4.34988">
        <ele>116.9375</ele>
        <time>2013-08-04T09:37:37Z</time>
      </trkpt>
      <trkpt lat="48.38728" lon="-4.34951">
        <ele>115.9761963</ele>
        <time>2013-08-04T09:37:42Z</time>
      </trkpt>
      <trkpt lat="48.38709" lon="-4.34933">
        <ele>115.4956055</ele>
        <time>2013-08-04T09:37:46Z</time>
      </trkpt>
      <trkpt lat="48.38685" lon="-4.34931">
        <ele>115.0148926</ele>
        <time>2013-08-04T09:37:50Z</time>
      </trkpt>
      <trkpt lat="48.38661" lon="-4.34933">
        <ele>114.5341797</ele>
        <time>2013-08-04T09:37:54Z</time>
      </trkpt>
      <trkpt lat="48.3861" lon="-4.34937">
        <ele>114.5341797</ele>
        <time>2013-08-04T09:38:02Z</time>
      </trkpt>
      <trkpt lat="48.38549" lon="-4.3494">
        <ele>113.0922852</ele>
        <time>2013-08-04T09:38:12Z</time>
      </trkpt>
      <trkpt lat="48.38506" lon="-4.3494">
        <ele>113.572998</ele>
        <time>2013-08-04T09:38:20Z</time>
      </trkpt>
      <trkpt lat="48.38467" lon="-4.34936">
        <ele>113.572998</ele>
        <time>2013-08-04T09:38:28Z</time>
      </trkpt>
      <trkpt lat="48.38463" lon="-4.34935">
        <ele>113.572998</ele>
        <time>2013-08-04T09:38:29Z</time>
      </trkpt>
      <trkpt lat="48.38443" lon="-4.34945">
        <ele>114.0535889</ele>
        <time>2013-08-04T09:38:34Z</time>
      </trkpt>
      <trkpt lat="48.38422" lon="-4.34947">
        <ele>114.5341797</ele>
        <time>2013-08-04T09:38:39Z</time>
      </trkpt>
      <trkpt lat="48.38417" lon="-4.34944">
        <ele>114.5341797</ele>
        <time>2013-08-04T09:38:40Z</time>
      </trkpt>
      <trkpt lat="48.38391" lon="-4.34934">
        <ele>115.4956055</ele>
        <time>2013-08-04T09:38:46Z</time>
      </trkpt>
      <trkpt lat="48.38374" lon="-4.34932">
        <ele>116.4567871</ele>
        <time>2013-08-04T09:38:50Z</time>
      </trkpt>
      <trkpt lat="48.38341" lon="-4.34922">
        <ele>118.3793945</ele>
        <time>2013-08-04T09:38:58Z</time>
      </trkpt>
      <trkpt lat="48.38309" lon="-4.34911">
        <ele>119.8214111</ele>
        <time>2013-08-04T09:39:07Z</time>
      </trkpt>
      <trkpt lat="48.38277" lon="-4.34901">
        <ele>119.8214111</ele>
        <time>2013-08-04T09:39:16Z</time>
      </trkpt>
      <trkpt lat="48.38239" lon="-4.34889">
        <ele>118.8601074</ele>
        <time>2013-08-04T09:39:26Z</time>
      </trkpt>
      <trkpt lat="48.38223" lon="-4.34884">
        <ele>117.8988037</ele>
        <time>2013-08-04T09:39:30Z</time>
      </trkpt>
      <trkpt lat="48.382" lon="-4.34901">
        <ele>116.4567871</ele>
        <time>2013-08-04T09:39:35Z</time>
      </trkpt>
      <trkpt lat="48.38188" lon="-4.34929">
        <ele>115.0148926</ele>
        <time>2013-08-04T09:39:39Z</time>
      </trkpt>
      <trkpt lat="48.38192" lon="-4.34959">
        <ele>114.0535889</ele>
        <time>2013-08-04T09:39:43Z</time>
      </trkpt>
      <trkpt lat="48.38194" lon="-4.34968">
        <ele>114.0535889</ele>
        <time>2013-08-04T09:39:45Z</time>
      </trkpt>
      <trkpt lat="48.38197" lon="-4.35002">
        <ele>113.0922852</ele>
        <time>2013-08-04T09:39:53Z</time>
      </trkpt>
      <trkpt lat="48.38199" lon="-4.35024">
        <ele>113.0922852</ele>
        <time>2013-08-04T09:39:59Z</time>
      </trkpt>
      <trkpt lat="48.38202" lon="-4.35051">
        <ele>113.572998</ele>
        <time>2013-08-04T09:40:05Z</time>
      </trkpt>
      <trkpt lat="48.38204" lon="-4.35094">
        <ele>113.0922852</ele>
        <time>2013-08-04T09:40:12Z</time>
      </trkpt>
      <trkpt lat="48.38192" lon="-4.35095">
        <ele>107.3243408</ele>
        <time>2013-08-04T09:40:15Z</time>
      </trkpt>
      <trkpt lat="48.3819" lon="-4.35109">
        <ele>104.9210205</ele>
        <time>2013-08-04T09:40:19Z</time>
      </trkpt>
      <trkpt lat="48.38194" lon="-4.35128">
        <ele>107.3243408</ele>
        <time>2013-08-04T09:40:22Z</time>
      </trkpt>
      <trkpt lat="48.38201" lon="-4.35148">
        <ele>110.208252</ele>
        <time>2013-08-04T09:40:24Z</time>
      </trkpt>
      <trkpt lat="48.38205" lon="-4.3521">
        <ele>113.572998</ele>
        <time>2013-08-04T09:40:33Z</time>
      </trkpt>
      <trkpt lat="48.38204" lon="-4.35223">
        <ele>114.0535889</ele>
        <time>2013-08-04T09:40:35Z</time>
      </trkpt>
      <trkpt lat="48.38205" lon="-4.35236">
        <ele>113.572998</ele>
        <time>2013-08-04T09:40:37Z</time>
      </trkpt>
      <trkpt lat="48.38206" lon="-4.35288">
        <ele>114.5341797</ele>
        <time>2013-08-04T09:40:45Z</time>
      </trkpt>
      <trkpt lat="48.38206" lon="-4.3534">
        <ele>115.4956055</ele>
        <time>2013-08-04T09:40:54Z</time>
      </trkpt>
      <trkpt lat="48.38205" lon="-4.35378">
        <ele>115.4956055</ele>
        <time>2013-08-04T09:41:00Z</time>
      </trkpt>
      <trkpt lat="48.38203" lon="-4.35429">
        <ele>116.4567871</ele>
        <time>2013-08-04T09:41:08Z</time>
      </trkpt>
      <trkpt lat="48.38203" lon="-4.35473">
        <ele>115.9761963</ele>
        <time>2013-08-04T09:41:15Z</time>
      </trkpt>
      <trkpt lat="48.38202" lon="-4.35528">
        <ele>115.0148926</ele>
        <time>2013-08-04T09:41:24Z</time>
      </trkpt>
      <trkpt lat="48.38201" lon="-4.35573">
        <ele>115.4956055</ele>
        <time>2013-08-04T09:41:31Z</time>
      </trkpt>
      <trkpt lat="48.38201" lon="-4.35628">
        <ele>116.9375</ele>
        <time>2013-08-04T09:41:40Z</time>
      </trkpt>
      <trkpt lat="48.382" lon="-4.35677">
        <ele>117.8988037</ele>
        <time>2013-08-04T09:41:49Z</time>
      </trkpt>
      <trkpt lat="48.38197" lon="-4.3571">
        <ele>116.9375</ele>
        <time>2013-08-04T09:41:55Z</time>
      </trkpt>
      <trkpt lat="48.382" lon="-4.35734">
        <ele>117.4182129</ele>
        <time>2013-08-04T09:42:00Z</time>
      </trkpt>
      <trkpt lat="48.38201" lon="-4.35777">
        <ele>118.3793945</ele>
        <time>2013-08-04T09:42:07Z</time>
      </trkpt>
      <trkpt lat="48.382" lon="-4.35822">
        <ele>120.302124</ele>
        <time>2013-08-04T09:42:15Z</time>
      </trkpt>
      <trkpt lat="48.38199" lon="-4.35859">
        <ele>121.2635498</ele>
        <time>2013-08-04T09:42:22Z</time>
      </trkpt>
      <trkpt lat="48.38197" lon="-4.35894">
        <ele>122.2247314</ele>
        <time>2013-08-04T09:42:28Z</time>
      </trkpt>
      <trkpt lat="48.38195" lon="-4.35931">
        <ele>123.1861572</ele>
        <time>2013-08-04T09:42:35Z</time>
      </trkpt>
      <trkpt lat="48.38194" lon="-4.35953">
        <ele>123.666748</ele>
        <time>2013-08-04T09:42:40Z</time>
      </trkpt>
      <trkpt lat="48.38193" lon="-4.35993">
        <ele>124.6280518</ele>
        <time>2013-08-04T09:42:48Z</time>
      </trkpt>
      <trkpt lat="48.38192" lon="-4.36024">
        <ele>125.1087646</ele>
        <time>2013-08-04T09:42:55Z</time>
      </trkpt>
      <trkpt lat="48.38189" lon="-4.36057">
        <ele>124.6280518</ele>
        <time>2013-08-04T09:43:00Z</time>
      </trkpt>
      <trkpt lat="48.38185" lon="-4.36105">
        <ele>124.1473389</ele>
        <time>2013-08-04T09:43:06Z</time>
      </trkpt>
      <trkpt lat="48.38182" lon="-4.36155">
        <ele>123.666748</ele>
        <time>2013-08-04T09:43:12Z</time>
      </trkpt>
      <trkpt lat="48.38176" lon="-4.3622">
        <ele>124.6280518</ele>
        <time>2013-08-04T09:43:20Z</time>
      </trkpt>
      <trkpt lat="48.38174" lon="-4.36235">
        <ele>124.6280518</ele>
        <time>2013-08-04T09:43:22Z</time>
      </trkpt>
      <trkpt lat="48.38172" lon="-4.36257">
        <ele>125.1087646</ele>
        <time>2013-08-04T09:43:25Z</time>
      </trkpt>
      <trkpt lat="48.38168" lon="-4.36317">
        <ele>123.666748</ele>
        <time>2013-08-04T09:43:32Z</time>
      </trkpt>
      <trkpt lat="48.38163" lon="-4.36392">
        <ele>123.1861572</ele>
        <time>2013-08-04T09:43:41Z</time>
      </trkpt>
      <trkpt lat="48.38159" lon="-4.36451">
        <ele>123.1861572</ele>
        <time>2013-08-04T09:43:49Z</time>
      </trkpt>
      <trkpt lat="48.38153" lon="-4.36517">
        <ele>123.666748</ele>
        <time>2013-08-04T09:43:57Z</time>
      </trkpt>
      <trkpt lat="48.38147" lon="-4.36575">
        <ele>123.666748</ele>
        <time>2013-08-04T09:44:05Z</time>
      </trkpt>
      <trkpt lat="48.38141" lon="-4.36659">
        <ele>120.7828369</ele>
        <time>2013-08-04T09:44:16Z</time>
      </trkpt>
      <trkpt lat="48.38137" lon="-4.36709">
        <ele>119.8214111</ele>
        <time>2013-08-04T09:44:23Z</time>
      </trkpt>
      <trkpt lat="48.38136" lon="-4.36737">
        <ele>119.8214111</ele>
        <time>2013-08-04T09:44:27Z</time>
      </trkpt>
      <trkpt lat="48.38133" lon="-4.36799">
        <ele>118.8601074</ele>
        <time>2013-08-04T09:44:35Z</time>
      </trkpt>
      <trkpt lat="48.38133" lon="-4.36855">
        <ele>117.8988037</ele>
        <time>2013-08-04T09:44:42Z</time>
      </trkpt>
      <trkpt lat="48.38135" lon="-4.36915">
        <ele>116.9375</ele>
        <time>2013-08-04T09:44:49Z</time>
      </trkpt>
      <trkpt lat="48.38137" lon="-4.36964">
        <ele>115.9761963</ele>
        <time>2013-08-04T09:44:54Z</time>
      </trkpt>
      <trkpt lat="48.38144" lon="-4.37044">
        <ele>113.572998</ele>
        <time>2013-08-04T09:45:01Z</time>
      </trkpt>
      <trkpt lat="48.38156" lon="-4.37131">
        <ele>110.6888428</ele>
        <time>2013-08-04T09:45:08Z</time>
      </trkpt>
      <trkpt lat="48.38167" lon="-4.37197">
        <ele>108.7662354</ele>
        <time>2013-08-04T09:45:13Z</time>
      </trkpt>
      <trkpt lat="48.38178" lon="-4.37247">
        <ele>108.2856445</ele>
        <time>2013-08-04T09:45:17Z</time>
      </trkpt>
      <trkpt lat="48.38194" lon="-4.37302">
        <ele>108.2856445</ele>
        <time>2013-08-04T09:45:22Z</time>
      </trkpt>
      <trkpt lat="48.38217" lon="-4.37382">
        <ele>106.8436279</ele>
        <time>2013-08-04T09:45:30Z</time>
      </trkpt>
      <trkpt lat="48.38239" lon="-4.3747">
        <ele>105.8824463</ele>
        <time>2013-08-04T09:45:38Z</time>
      </trkpt>
      <trkpt lat="48.38261" lon="-4.37549">
        <ele>106.8436279</ele>
        <time>2013-08-04T09:45:45Z</time>
      </trkpt>
      <trkpt lat="48.38273" lon="-4.37607">
        <ele>107.8050537</ele>
        <time>2013-08-04T09:45:51Z</time>
      </trkpt>
      <trkpt lat="48.38274" lon="-4.37634">
        <ele>108.7662354</ele>
        <time>2013-08-04T09:45:54Z</time>
      </trkpt>
      <trkpt lat="48.38277" lon="-4.37682">
        <ele>109.7276611</ele>
        <time>2013-08-04T09:46:00Z</time>
      </trkpt>
      <trkpt lat="48.38277" lon="-4.37689">
        <ele>109.7276611</ele>
        <time>2013-08-04T09:46:01Z</time>
      </trkpt>
      <trkpt lat="48.38285" lon="-4.37707">
        <ele>111.1695557</ele>
        <time>2013-08-04T09:46:05Z</time>
      </trkpt>
      <trkpt lat="48.38292" lon="-4.3771">
        <ele>112.1309814</ele>
        <time>2013-08-04T09:46:07Z</time>
      </trkpt>
      <trkpt lat="48.38319" lon="-4.37727">
        <ele>113.572998</ele>
        <time>2013-08-04T09:46:14Z</time>
      </trkpt>
      <trkpt lat="48.38338" lon="-4.37724">
        <ele>113.572998</ele>
        <time>2013-08-04T09:46:18Z</time>
      </trkpt>
      <trkpt lat="48.38342" lon="-4.37722">
        <ele>113.572998</ele>
        <time>2013-08-04T09:46:19Z</time>
      </trkpt>
      <trkpt lat="48.38387" lon="-4.37706">
        <ele>112.1309814</ele>
        <time>2013-08-04T09:46:29Z</time>
      </trkpt>
      <trkpt lat="48.38396" lon="-4.37704">
        <ele>111.6502686</ele>
        <time>2013-08-04T09:46:31Z</time>
      </trkpt>
      <trkpt lat="48.38406" lon="-4.37704">
        <ele>111.6502686</ele>
        <time>2013-08-04T09:46:33Z</time>
      </trkpt>
      <trkpt lat="48.38433" lon="-4.37709">
        <ele>110.208252</ele>
        <time>2013-08-04T09:46:38Z</time>
      </trkpt>
      <trkpt lat="48.3845" lon="-4.37718">
        <ele>109.2469482</ele>
        <time>2013-08-04T09:46:41Z</time>
      </trkpt>
      <trkpt lat="48.38468" lon="-4.37728">
        <ele>107.8050537</ele>
        <time>2013-08-04T09:46:44Z</time>
      </trkpt>
      <trkpt lat="48.38486" lon="-4.37712">
        <ele>107.3243408</ele>
        <time>2013-08-04T09:46:47Z</time>
      </trkpt>
      <trkpt lat="48.38495" lon="-4.37695">
        <ele>107.3243408</ele>
        <time>2013-08-04T09:46:50Z</time>
      </trkpt>
      <trkpt lat="48.38513" lon="-4.37657">
        <ele>108.7662354</ele>
        <time>2013-08-04T09:46:56Z</time>
      </trkpt>
      <trkpt lat="48.38534" lon="-4.37616">
        <ele>106.3630371</ele>
        <time>2013-08-04T09:47:01Z</time>
      </trkpt>
      <trkpt lat="48.3854" lon="-4.37608">
        <ele>105.8824463</ele>
        <time>2013-08-04T09:47:02Z</time>
      </trkpt>
      <trkpt lat="48.38568" lon="-4.37588">
        <ele>104.9210205</ele>
        <time>2013-08-04T09:47:06Z</time>
      </trkpt>
      <trkpt lat="48.38577" lon="-4.37586">
        <ele>104.9210205</ele>
        <time>2013-08-04T09:47:07Z</time>
      </trkpt>
      <trkpt lat="48.3864" lon="-4.37584">
        <ele>103.4790039</ele>
        <time>2013-08-04T09:47:14Z</time>
      </trkpt>
      <trkpt lat="48.38688" lon="-4.3759">
        <ele>101.0756836</ele>
        <time>2013-08-04T09:47:19Z</time>
      </trkpt>
      <trkpt lat="48.38731" lon="-4.37617">
        <ele>97.7111816</ele>
        <time>2013-08-04T09:47:24Z</time>
      </trkpt>
      <trkpt lat="48.38738" lon="-4.37622">
        <ele>97.2304688</ele>
        <time>2013-08-04T09:47:25Z</time>
      </trkpt>
      <trkpt lat="48.38763" lon="-4.37646">
        <ele>96.2692871</ele>
        <time>2013-08-04T09:47:29Z</time>
      </trkpt>
      <trkpt lat="48.38781" lon="-4.37687">
        <ele>94.3465576</ele>
        <time>2013-08-04T09:47:33Z</time>
      </trkpt>
      <trkpt lat="48.388" lon="-4.3775">
        <ele>84.7333984</ele>
        <time>2013-08-04T09:47:38Z</time>
      </trkpt>
      <trkpt lat="48.38802" lon="-4.37759">
        <ele>82.810791</ele>
        <time>2013-08-04T09:47:39Z</time>
      </trkpt>
      <trkpt lat="48.3882" lon="-4.37808">
        <ele>75.6008301</ele>
        <time>2013-08-04T09:47:43Z</time>
      </trkpt>
      <trkpt lat="48.38825" lon="-4.3782">
        <ele>74.6395264</ele>
        <time>2013-08-04T09:47:44Z</time>
      </trkpt>
      <trkpt lat="48.38864" lon="-4.37863">
        <ele>66.4682617</ele>
        <time>2013-08-04T09:47:50Z</time>
      </trkpt>
      <trkpt lat="48.38881" lon="-4.37878">
        <ele>60.7003174</ele>
        <time>2013-08-04T09:47:54Z</time>
      </trkpt>
      <trkpt lat="48.38884" lon="-4.37879">
        <ele>59.2584229</ele>
        <time>2013-08-04T09:47:55Z</time>
      </trkpt>
      <trkpt lat="48.3889" lon="-4.37884">
        <ele>57.3358154</ele>
        <time>2013-08-04T09:47:57Z</time>
      </trkpt>
      <trkpt lat="48.38918" lon="-4.37909">
        <ele>51.0871582</ele>
        <time>2013-08-04T09:48:02Z</time>
      </trkpt>
      <trkpt lat="48.3895" lon="-4.37948">
        <ele>46.2806396</ele>
        <time>2013-08-04T09:48:06Z</time>
      </trkpt>
      <trkpt lat="48.38991" lon="-4.38">
        <ele>40.0321045</ele>
        <time>2013-08-04T09:48:11Z</time>
      </trkpt>
      <trkpt lat="48.39039" lon="-4.38056">
        <ele>32.8222656</ele>
        <time>2013-08-04T09:48:17Z</time>
      </trkpt>
      <trkpt lat="48.39071" lon="-4.38091">
        <ele>29.4575195</ele>
        <time>2013-08-04T09:48:22Z</time>
      </trkpt>
      <trkpt lat="48.39099" lon="-4.38129">
        <ele>25.6123047</ele>
        <time>2013-08-04T09:48:27Z</time>
      </trkpt>
      <trkpt lat="48.39105" lon="-4.38136">
        <ele>25.1317139</ele>
        <time>2013-08-04T09:48:28Z</time>
      </trkpt>
      <trkpt lat="48.39139" lon="-4.38148">
        <ele>23.6895752</ele>
        <time>2013-08-04T09:48:33Z</time>
      </trkpt>
      <trkpt lat="48.39152" lon="-4.38127">
        <ele>23.2089844</ele>
        <time>2013-08-04T09:48:36Z</time>
      </trkpt>
      <trkpt lat="48.39161" lon="-4.38099">
        <ele>22.2475586</ele>
        <time>2013-08-04T09:48:39Z</time>
      </trkpt>
      <trkpt lat="48.39173" lon="-4.38058">
        <ele>21.286377</ele>
        <time>2013-08-04T09:48:43Z</time>
      </trkpt>
      <trkpt lat="48.39183" lon="-4.38031">
        <ele>20.8056641</ele>
        <time>2013-08-04T09:48:46Z</time>
      </trkpt>
      <trkpt lat="48.39203" lon="-4.37969">
        <ele>20.3249512</ele>
        <time>2013-08-04T09:48:53Z</time>
      </trkpt>
      <trkpt lat="48.39203" lon="-4.37942">
        <ele>19.8443604</ele>
        <time>2013-08-04T09:48:57Z</time>
      </trkpt>
      <trkpt lat="48.39193" lon="-4.37924">
        <ele>18.8830566</ele>
        <time>2013-08-04T09:49:01Z</time>
      </trkpt>
      <trkpt lat="48.39186" lon="-4.37913">
        <ele>16.9604492</ele>
        <time>2013-08-04T09:49:03Z</time>
      </trkpt>
      <trkpt lat="48.39181" lon="-4.37901">
        <ele>15.9990234</ele>
        <time>2013-08-04T09:49:05Z</time>
      </trkpt>
      <trkpt lat="48.3918" lon="-4.3788">
        <ele>17.9217529</ele>
        <time>2013-08-04T09:49:09Z</time>
      </trkpt>
      <trkpt lat="48.3918" lon="-4.37876">
        <ele>18.4023438</ele>
        <time>2013-08-04T09:49:10Z</time>
      </trkpt>
      <trkpt lat="48.39185" lon="-4.37864">
        <ele>19.3637695</ele>
        <time>2013-08-04T09:49:14Z</time>
      </trkpt>
      <trkpt lat="48.39187" lon="-4.37861">
        <ele>19.8443604</ele>
        <time>2013-08-04T09:49:15Z</time>
      </trkpt>
      <trkpt lat="48.39194" lon="-4.37857">
        <ele>20.8056641</ele>
        <time>2013-08-04T09:49:19Z</time>
      </trkpt>
      <trkpt lat="48.39194" lon="-4.37857">
        <ele>17.4411621</ele>
        <time>2013-08-04T09:49:23Z</time>
      </trkpt>
    </trkseg>
  </trk>
</gpx>